<?xml version="1.0" encoding="UTF-8" standalone="no" ?>
<gpx xmlns="http://www.topografix.com/GPX/1/1" xmlns:xsi="http://www.w3.org/2001/XMLSchema-instance" xsi:schemaLocation="http://www.topografix.com/GPX/1/1 http://www.topografix.com/GPX/1/1/gpx.xsd" version="1.1" creator="VisuGPX - https://www.visugpx.com">
  <metadata>
    <name>Alès (30) 2</name>
    <desc><![CDATA[VTT-Gard Alès 35km]]></desc>
  </metadata>
  <trk>
    <name><![CDATA[Du crassier à Campeyrigoux - 9279 - UtagawaVTT.com]]></name>
    <trkseg>
      <trkpt lat="44.1162" lon="4.09682">
        <ele>127.761246</ele>
        <time>2015-01-09T11:57:34Z</time>
      </trkpt>
      <trkpt lat="44.11651" lon="4.09638">
        <ele>127.353996</ele>
        <time>2015-01-09T11:57:44Z</time>
      </trkpt>
      <trkpt lat="44.11692" lon="4.09612">
        <ele>126.936852</ele>
        <time>2015-01-09T11:57:54Z</time>
      </trkpt>
      <trkpt lat="44.11737" lon="4.09589">
        <ele>127.839996</ele>
        <time>2015-01-09T11:58:04Z</time>
      </trkpt>
      <trkpt lat="44.11783" lon="4.09573">
        <ele>128.036545</ele>
        <time>2015-01-09T11:58:14Z</time>
      </trkpt>
      <trkpt lat="44.11829" lon="4.0956">
        <ele>129.410049</ele>
        <time>2015-01-09T11:58:25Z</time>
      </trkpt>
      <trkpt lat="44.1187" lon="4.09526">
        <ele>130.918594</ele>
        <time>2015-01-09T11:58:36Z</time>
      </trkpt>
      <trkpt lat="44.11903" lon="4.09474">
        <ele>129.230011</ele>
        <time>2015-01-09T11:58:49Z</time>
      </trkpt>
      <trkpt lat="44.11936" lon="4.09427">
        <ele>126.095963</ele>
        <time>2015-01-09T11:58:59Z</time>
      </trkpt>
      <trkpt lat="44.11981" lon="4.09399">
        <ele>126.23465</ele>
        <time>2015-01-09T11:59:07Z</time>
      </trkpt>
      <trkpt lat="44.12025" lon="4.09365">
        <ele>126.244446</ele>
        <time>2015-01-09T11:59:15Z</time>
      </trkpt>
      <trkpt lat="44.12064" lon="4.0932">
        <ele>124.568352</ele>
        <time>2015-01-09T11:59:23Z</time>
      </trkpt>
      <trkpt lat="44.12101" lon="4.0928">
        <ele>123.607811</ele>
        <time>2015-01-09T11:59:30Z</time>
      </trkpt>
      <trkpt lat="44.12143" lon="4.09247">
        <ele>125.553116</ele>
        <time>2015-01-09T11:59:37Z</time>
      </trkpt>
      <trkpt lat="44.12147" lon="4.09176">
        <ele>122.877258</ele>
        <time>2015-01-09T11:59:44Z</time>
      </trkpt>
      <trkpt lat="44.12152" lon="4.09109">
        <ele>121.705002</ele>
        <time>2015-01-09T11:59:50Z</time>
      </trkpt>
      <trkpt lat="44.12149" lon="4.09044">
        <ele>121.330002</ele>
        <time>2015-01-09T11:59:56Z</time>
      </trkpt>
      <trkpt lat="44.12151" lon="4.08977">
        <ele>121.190125</ele>
        <time>2015-01-09T12:00:03Z</time>
      </trkpt>
      <trkpt lat="44.12149" lon="4.08913">
        <ele>121.107498</ele>
        <time>2015-01-09T12:00:10Z</time>
      </trkpt>
      <trkpt lat="44.12141" lon="4.08779">
        <ele>120.894997</ele>
        <time>2015-01-09T12:00:26Z</time>
      </trkpt>
      <trkpt lat="44.12142" lon="4.08645">
        <ele>120.870003</ele>
        <time>2015-01-09T12:00:42Z</time>
      </trkpt>
      <trkpt lat="44.12137" lon="4.08579">
        <ele>120.7425</ele>
        <time>2015-01-09T12:00:50Z</time>
      </trkpt>
      <trkpt lat="44.12141" lon="4.0851">
        <ele>120.800003</ele>
        <time>2015-01-09T12:00:59Z</time>
      </trkpt>
      <trkpt lat="44.12137" lon="4.08446">
        <ele>120.690002</ele>
        <time>2015-01-09T12:01:08Z</time>
      </trkpt>
      <trkpt lat="44.12137" lon="4.08379">
        <ele>120.650002</ele>
        <time>2015-01-09T12:01:17Z</time>
      </trkpt>
      <trkpt lat="44.12133" lon="4.08315">
        <ele>120.555</ele>
        <time>2015-01-09T12:01:26Z</time>
      </trkpt>
      <trkpt lat="44.12134" lon="4.08248">
        <ele>121.162498</ele>
        <time>2015-01-09T12:01:36Z</time>
      </trkpt>
      <trkpt lat="44.12129" lon="4.08181">
        <ele>121.415001</ele>
        <time>2015-01-09T12:01:46Z</time>
      </trkpt>
      <trkpt lat="44.12133" lon="4.08118">
        <ele>121.467499</ele>
        <time>2015-01-09T12:01:56Z</time>
      </trkpt>
      <trkpt lat="44.1213" lon="4.08051">
        <ele>121.394997</ele>
        <time>2015-01-09T12:02:08Z</time>
      </trkpt>
      <trkpt lat="44.12131" lon="4.07984">
        <ele>121.722694</ele>
        <time>2015-01-09T12:02:20Z</time>
      </trkpt>
      <trkpt lat="44.12126" lon="4.07921">
        <ele>121.754585</ele>
        <time>2015-01-09T12:02:30Z</time>
      </trkpt>
      <trkpt lat="44.12111" lon="4.07858">
        <ele>122.395996</ele>
        <time>2015-01-09T12:02:40Z</time>
      </trkpt>
      <trkpt lat="44.12101" lon="4.07795">
        <ele>124.787407</ele>
        <time>2015-01-09T12:02:52Z</time>
      </trkpt>
      <trkpt lat="44.12099" lon="4.0773">
        <ele>126.548035</ele>
        <time>2015-01-09T12:03:04Z</time>
      </trkpt>
      <trkpt lat="44.12099" lon="4.07668">
        <ele>126.995705</ele>
        <time>2015-01-09T12:03:16Z</time>
      </trkpt>
      <trkpt lat="44.12121" lon="4.07609">
        <ele>129.366974</ele>
        <time>2015-01-09T12:03:29Z</time>
      </trkpt>
      <trkpt lat="44.12146" lon="4.07552">
        <ele>129.505066</ele>
        <time>2015-01-09T12:03:42Z</time>
      </trkpt>
      <trkpt lat="44.12175" lon="4.07498">
        <ele>129.18219</ele>
        <time>2015-01-09T12:03:55Z</time>
      </trkpt>
      <trkpt lat="44.12233" lon="4.07395">
        <ele>129.640015</ele>
        <time>2015-01-09T12:04:20Z</time>
      </trkpt>
      <trkpt lat="44.12265" lon="4.07349">
        <ele>129.883133</ele>
        <time>2015-01-09T12:04:32Z</time>
      </trkpt>
      <trkpt lat="44.123" lon="4.07309">
        <ele>129.860825</ele>
        <time>2015-01-09T12:04:44Z</time>
      </trkpt>
      <trkpt lat="44.12338" lon="4.07274">
        <ele>129.372498</ele>
        <time>2015-01-09T12:04:56Z</time>
      </trkpt>
      <trkpt lat="44.12384" lon="4.07257">
        <ele>129.547501</ele>
        <time>2015-01-09T12:05:08Z</time>
      </trkpt>
      <trkpt lat="44.1243" lon="4.07242">
        <ele>129.257507</ele>
        <time>2015-01-09T12:05:20Z</time>
      </trkpt>
      <trkpt lat="44.12476" lon="4.0724">
        <ele>129.145004</ele>
        <time>2015-01-09T12:05:31Z</time>
      </trkpt>
      <trkpt lat="44.12524" lon="4.07261">
        <ele>129.764999</ele>
        <time>2015-01-09T12:05:43Z</time>
      </trkpt>
      <trkpt lat="44.12566" lon="4.07286">
        <ele>129.905655</ele>
        <time>2015-01-09T12:05:54Z</time>
      </trkpt>
      <trkpt lat="44.12611" lon="4.07311">
        <ele>130</ele>
        <time>2015-01-09T12:06:05Z</time>
      </trkpt>
      <trkpt lat="44.12657" lon="4.07324">
        <ele>129.71904</ele>
        <time>2015-01-09T12:06:16Z</time>
      </trkpt>
      <trkpt lat="44.12704" lon="4.07317">
        <ele>129.382507</ele>
        <time>2015-01-09T12:06:35Z</time>
      </trkpt>
      <trkpt lat="44.128" lon="4.07307">
        <ele>128.990005</ele>
        <time>2015-01-09T12:06:56Z</time>
      </trkpt>
      <trkpt lat="44.12845" lon="4.07304">
        <ele>128.941711</ele>
        <time>2015-01-09T12:07:06Z</time>
      </trkpt>
      <trkpt lat="44.12893" lon="4.07308">
        <ele>129.933151</ele>
        <time>2015-01-09T12:07:19Z</time>
      </trkpt>
      <trkpt lat="44.12942" lon="4.07321">
        <ele>130.147507</ele>
        <time>2015-01-09T12:07:30Z</time>
      </trkpt>
      <trkpt lat="44.12984" lon="4.07345">
        <ele>130.436447</ele>
        <time>2015-01-09T12:07:40Z</time>
      </trkpt>
      <trkpt lat="44.13026" lon="4.07371">
        <ele>130</ele>
        <time>2015-01-09T12:07:49Z</time>
      </trkpt>
      <trkpt lat="44.13065" lon="4.07406">
        <ele>130.021011</ele>
        <time>2015-01-09T12:07:58Z</time>
      </trkpt>
      <trkpt lat="44.13103" lon="4.07449">
        <ele>130.119995</ele>
        <time>2015-01-09T12:08:07Z</time>
      </trkpt>
      <trkpt lat="44.13136" lon="4.07495">
        <ele>130.370865</ele>
        <time>2015-01-09T12:08:15Z</time>
      </trkpt>
      <trkpt lat="44.13165" lon="4.07541">
        <ele>130</ele>
        <time>2015-01-09T12:08:23Z</time>
      </trkpt>
      <trkpt lat="44.13197" lon="4.07587">
        <ele>130.015335</ele>
        <time>2015-01-09T12:08:31Z</time>
      </trkpt>
      <trkpt lat="44.13229" lon="4.07638">
        <ele>130.027954</ele>
        <time>2015-01-09T12:08:40Z</time>
      </trkpt>
      <trkpt lat="44.13261" lon="4.07685">
        <ele>130</ele>
        <time>2015-01-09T12:08:48Z</time>
      </trkpt>
      <trkpt lat="44.13293" lon="4.0773">
        <ele>130.445435</ele>
        <time>2015-01-09T12:08:56Z</time>
      </trkpt>
      <trkpt lat="44.13327" lon="4.0777">
        <ele>130.242493</ele>
        <time>2015-01-09T12:09:04Z</time>
      </trkpt>
      <trkpt lat="44.13364" lon="4.07808">
        <ele>130.196762</ele>
        <time>2015-01-09T12:09:13Z</time>
      </trkpt>
      <trkpt lat="44.13394" lon="4.07784">
        <ele>130</ele>
        <time>2015-01-09T12:09:31Z</time>
      </trkpt>
      <trkpt lat="44.13425" lon="4.07747">
        <ele>130.271255</ele>
        <time>2015-01-09T12:09:46Z</time>
      </trkpt>
      <trkpt lat="44.1345" lon="4.07691">
        <ele>131.27742</ele>
        <time>2015-01-09T12:09:58Z</time>
      </trkpt>
      <trkpt lat="44.13478" lon="4.07634">
        <ele>133.389008</ele>
        <time>2015-01-09T12:10:09Z</time>
      </trkpt>
      <trkpt lat="44.13505" lon="4.07582">
        <ele>134.946228</ele>
        <time>2015-01-09T12:10:20Z</time>
      </trkpt>
      <trkpt lat="44.13542" lon="4.0754">
        <ele>136.884995</ele>
        <time>2015-01-09T12:10:34Z</time>
      </trkpt>
      <trkpt lat="44.13574" lon="4.07493">
        <ele>139.110077</ele>
        <time>2015-01-09T12:10:50Z</time>
      </trkpt>
      <trkpt lat="44.13614" lon="4.07457">
        <ele>140.037506</ele>
        <time>2015-01-09T12:11:06Z</time>
      </trkpt>
      <trkpt lat="44.13659" lon="4.0743">
        <ele>141.928925</ele>
        <time>2015-01-09T12:11:23Z</time>
      </trkpt>
      <trkpt lat="44.13699" lon="4.07266">
        <ele>153.590454</ele>
        <time>2015-01-09T12:15:05Z</time>
      </trkpt>
      <trkpt lat="44.13664" lon="4.07226">
        <ele>151.541336</ele>
        <time>2015-01-09T12:15:19Z</time>
      </trkpt>
      <trkpt lat="44.13685" lon="4.07215">
        <ele>155.410431</ele>
        <time>2015-01-09T12:15:37Z</time>
      </trkpt>
      <trkpt lat="44.13707" lon="4.07161">
        <ele>161.018143</ele>
        <time>2015-01-09T12:16:06Z</time>
      </trkpt>
      <trkpt lat="44.13731" lon="4.07107">
        <ele>165.703812</ele>
        <time>2015-01-09T12:16:37Z</time>
      </trkpt>
      <trkpt lat="44.13762" lon="4.07062">
        <ele>169.679443</ele>
        <time>2015-01-09T12:17:04Z</time>
      </trkpt>
      <trkpt lat="44.13839" lon="4.06987">
        <ele>178.849609</ele>
        <time>2015-01-09T12:17:53Z</time>
      </trkpt>
      <trkpt lat="44.13849" lon="4.0693">
        <ele>178.938492</ele>
        <time>2015-01-09T12:18:16Z</time>
      </trkpt>
      <trkpt lat="44.13891" lon="4.06893">
        <ele>188.140778</ele>
        <time>2015-01-09T12:18:50Z</time>
      </trkpt>
      <trkpt lat="44.13926" lon="4.06854">
        <ele>199.042923</ele>
        <time>2015-01-09T12:19:26Z</time>
      </trkpt>
      <trkpt lat="44.13943" lon="4.06793">
        <ele>203.990982</ele>
        <time>2015-01-09T12:19:59Z</time>
      </trkpt>
      <trkpt lat="44.13962" lon="4.06733">
        <ele>212.637909</ele>
        <time>2015-01-09T12:20:33Z</time>
      </trkpt>
      <trkpt lat="44.13984" lon="4.06674">
        <ele>217.095001</ele>
        <time>2015-01-09T12:21:05Z</time>
      </trkpt>
      <trkpt lat="44.13996" lon="4.06616">
        <ele>221.011932</ele>
        <time>2015-01-09T12:21:35Z</time>
      </trkpt>
      <trkpt lat="44.14031" lon="4.06592">
        <ele>230.487503</ele>
        <time>2015-01-09T12:22:05Z</time>
      </trkpt>
      <trkpt lat="44.14021" lon="4.06528">
        <ele>232.291</ele>
        <time>2015-01-09T12:22:33Z</time>
      </trkpt>
      <trkpt lat="44.14018" lon="4.06467">
        <ele>235.582825</ele>
        <time>2015-01-09T12:23:00Z</time>
      </trkpt>
      <trkpt lat="44.13992" lon="4.06411">
        <ele>234.342529</ele>
        <time>2015-01-09T12:23:52Z</time>
      </trkpt>
      <trkpt lat="44.13955" lon="4.06375">
        <ele>231.930008</ele>
        <time>2015-01-09T12:24:05Z</time>
      </trkpt>
      <trkpt lat="44.13914" lon="4.06347">
        <ele>232.44722</ele>
        <time>2015-01-09T12:24:26Z</time>
      </trkpt>
      <trkpt lat="44.13869" lon="4.0632">
        <ele>237.462006</ele>
        <time>2015-01-09T12:24:47Z</time>
      </trkpt>
      <trkpt lat="44.13846" lon="4.06272">
        <ele>241.098785</ele>
        <time>2015-01-09T12:26:37Z</time>
      </trkpt>
      <trkpt lat="44.1383" lon="4.06295">
        <ele>243.38269</ele>
        <time>2015-01-09T12:27:04Z</time>
      </trkpt>
      <trkpt lat="44.13816" lon="4.06302">
        <ele>245.934128</ele>
        <time>2015-01-09T12:28:24Z</time>
      </trkpt>
      <trkpt lat="44.13795" lon="4.06242">
        <ele>251.070969</ele>
        <time>2015-01-09T12:28:44Z</time>
      </trkpt>
      <trkpt lat="44.13777" lon="4.06185">
        <ele>259.866333</ele>
        <time>2015-01-09T12:29:06Z</time>
      </trkpt>
      <trkpt lat="44.13738" lon="4.06144">
        <ele>265.979675</ele>
        <time>2015-01-09T12:29:28Z</time>
      </trkpt>
      <trkpt lat="44.13709" lon="4.06097">
        <ele>267.767151</ele>
        <time>2015-01-09T12:30:01Z</time>
      </trkpt>
      <trkpt lat="44.13669" lon="4.0605">
        <ele>265.687653</ele>
        <time>2015-01-09T12:30:22Z</time>
      </trkpt>
      <trkpt lat="44.13617" lon="4.06031">
        <ele>259.205963</ele>
        <time>2015-01-09T12:30:44Z</time>
      </trkpt>
      <trkpt lat="44.13572" lon="4.05987">
        <ele>253.056183</ele>
        <time>2015-01-09T12:31:06Z</time>
      </trkpt>
      <trkpt lat="44.13569" lon="4.0598">
        <ele>252.65036</ele>
        <time>2015-01-09T12:31:59Z</time>
      </trkpt>
      <trkpt lat="44.13565" lon="4.05911">
        <ele>255.265259</ele>
        <time>2015-01-09T12:32:22Z</time>
      </trkpt>
      <trkpt lat="44.13576" lon="4.05834">
        <ele>261.736237</ele>
        <time>2015-01-09T12:32:51Z</time>
      </trkpt>
      <trkpt lat="44.13573" lon="4.05762">
        <ele>260.327698</ele>
        <time>2015-01-09T12:33:08Z</time>
      </trkpt>
      <trkpt lat="44.13538" lon="4.05715">
        <ele>258.232666</ele>
        <time>2015-01-09T12:33:26Z</time>
      </trkpt>
      <trkpt lat="44.13523" lon="4.05642">
        <ele>253.410934</ele>
        <time>2015-01-09T12:33:39Z</time>
      </trkpt>
      <trkpt lat="44.135" lon="4.05573">
        <ele>253.395004</ele>
        <time>2015-01-09T12:33:50Z</time>
      </trkpt>
      <trkpt lat="44.13447" lon="4.05552">
        <ele>249.147995</ele>
        <time>2015-01-09T12:34:09Z</time>
      </trkpt>
      <trkpt lat="44.13433" lon="4.0549">
        <ele>252.18512</ele>
        <time>2015-01-09T12:34:19Z</time>
      </trkpt>
      <trkpt lat="44.13388" lon="4.05474">
        <ele>249.292755</ele>
        <time>2015-01-09T12:34:32Z</time>
      </trkpt>
      <trkpt lat="44.13337" lon="4.05473">
        <ele>248.92363</ele>
        <time>2015-01-09T12:34:55Z</time>
      </trkpt>
      <trkpt lat="44.13287" lon="4.05443">
        <ele>253.323456</ele>
        <time>2015-01-09T12:35:59Z</time>
      </trkpt>
      <trkpt lat="44.13262" lon="4.0543">
        <ele>251.708008</ele>
        <time>2015-01-09T12:36:30Z</time>
      </trkpt>
      <trkpt lat="44.13335" lon="4.0534">
        <ele>252.87468</ele>
        <time>2015-01-09T12:37:30Z</time>
      </trkpt>
      <trkpt lat="44.13369" lon="4.05287">
        <ele>257.724854</ele>
        <time>2015-01-09T12:37:52Z</time>
      </trkpt>
      <trkpt lat="44.13411" lon="4.05231">
        <ele>272.685669</ele>
        <time>2015-01-09T12:38:25Z</time>
      </trkpt>
      <trkpt lat="44.13417" lon="4.05148">
        <ele>279.419373</ele>
        <time>2015-01-09T12:39:13Z</time>
      </trkpt>
      <trkpt lat="44.13379" lon="4.05104">
        <ele>279.836151</ele>
        <time>2015-01-09T12:39:57Z</time>
      </trkpt>
      <trkpt lat="44.13333" lon="4.05069">
        <ele>283.566864</ele>
        <time>2015-01-09T12:42:27Z</time>
      </trkpt>
      <trkpt lat="44.1329" lon="4.05025">
        <ele>287.948608</ele>
        <time>2015-01-09T12:43:43Z</time>
      </trkpt>
      <trkpt lat="44.13268" lon="4.04959">
        <ele>288.890533</ele>
        <time>2015-01-09T12:44:22Z</time>
      </trkpt>
      <trkpt lat="44.13281" lon="4.04889">
        <ele>292.221161</ele>
        <time>2015-01-09T12:44:48Z</time>
      </trkpt>
      <trkpt lat="44.13317" lon="4.0483">
        <ele>295.637909</ele>
        <time>2015-01-09T12:45:23Z</time>
      </trkpt>
      <trkpt lat="44.13356" lon="4.04781">
        <ele>297.728607</ele>
        <time>2015-01-09T12:45:46Z</time>
      </trkpt>
      <trkpt lat="44.13431" lon="4.04684">
        <ele>300.802063</ele>
        <time>2015-01-09T12:46:25Z</time>
      </trkpt>
      <trkpt lat="44.13465" lon="4.04643">
        <ele>302.872498</ele>
        <time>2015-01-09T12:47:45Z</time>
      </trkpt>
      <trkpt lat="44.13528" lon="4.04536">
        <ele>298.081757</ele>
        <time>2015-01-09T12:48:18Z</time>
      </trkpt>
      <trkpt lat="44.13547" lon="4.04476">
        <ele>297.345001</ele>
        <time>2015-01-09T12:48:46Z</time>
      </trkpt>
      <trkpt lat="44.13518" lon="4.04358">
        <ele>311.671997</ele>
        <time>2015-01-09T12:52:41Z</time>
      </trkpt>
      <trkpt lat="44.13493" lon="4.04294">
        <ele>321.95401</ele>
        <time>2015-01-09T12:53:19Z</time>
      </trkpt>
      <trkpt lat="44.1345" lon="4.04256">
        <ele>325.223602</ele>
        <time>2015-01-09T12:53:52Z</time>
      </trkpt>
      <trkpt lat="44.13411" lon="4.04206">
        <ele>330.252075</ele>
        <time>2015-01-09T12:54:19Z</time>
      </trkpt>
      <trkpt lat="44.13356" lon="4.0419">
        <ele>335.39151</ele>
        <time>2015-01-09T12:54:56Z</time>
      </trkpt>
      <trkpt lat="44.13305" lon="4.04183">
        <ele>339.319305</ele>
        <time>2015-01-09T12:55:26Z</time>
      </trkpt>
      <trkpt lat="44.13257" lon="4.0419">
        <ele>335.303009</ele>
        <time>2015-01-09T12:55:55Z</time>
      </trkpt>
      <trkpt lat="44.1321" lon="4.04184">
        <ele>336.317017</ele>
        <time>2015-01-09T12:56:22Z</time>
      </trkpt>
      <trkpt lat="44.13165" lon="4.04176">
        <ele>340.77655</ele>
        <time>2015-01-09T12:56:48Z</time>
      </trkpt>
      <trkpt lat="44.13126" lon="4.04138">
        <ele>341.275696</ele>
        <time>2015-01-09T12:57:41Z</time>
      </trkpt>
      <trkpt lat="44.13124" lon="4.04074">
        <ele>343.945099</ele>
        <time>2015-01-09T12:57:57Z</time>
      </trkpt>
      <trkpt lat="44.13159" lon="4.0403">
        <ele>348.055603</ele>
        <time>2015-01-09T12:58:13Z</time>
      </trkpt>
      <trkpt lat="44.1318" lon="4.03974">
        <ele>337.584564</ele>
        <time>2015-01-09T12:58:28Z</time>
      </trkpt>
      <trkpt lat="44.13225" lon="4.03961">
        <ele>346.150696</ele>
        <time>2015-01-09T12:58:46Z</time>
      </trkpt>
      <trkpt lat="44.1326" lon="4.03919">
        <ele>350.375916</ele>
        <time>2015-01-09T12:59:48Z</time>
      </trkpt>
      <trkpt lat="44.13246" lon="4.0386">
        <ele>339.870636</ele>
        <time>2015-01-09T13:00:00Z</time>
      </trkpt>
      <trkpt lat="44.13257" lon="4.03799">
        <ele>347.298889</ele>
        <time>2015-01-09T13:00:12Z</time>
      </trkpt>
      <trkpt lat="44.13255" lon="4.03734">
        <ele>344.946411</ele>
        <time>2015-01-09T13:00:23Z</time>
      </trkpt>
      <trkpt lat="44.13257" lon="4.03669">
        <ele>343.381561</ele>
        <time>2015-01-09T13:00:34Z</time>
      </trkpt>
      <trkpt lat="44.13285" lon="4.03625">
        <ele>349.182373</ele>
        <time>2015-01-09T13:00:46Z</time>
      </trkpt>
      <trkpt lat="44.13292" lon="4.03564">
        <ele>347.162201</ele>
        <time>2015-01-09T13:00:58Z</time>
      </trkpt>
      <trkpt lat="44.13306" lon="4.03499">
        <ele>343.241241</ele>
        <time>2015-01-09T13:01:11Z</time>
      </trkpt>
      <trkpt lat="44.1331" lon="4.03441">
        <ele>345.847351</ele>
        <time>2015-01-09T13:01:25Z</time>
      </trkpt>
      <trkpt lat="44.13269" lon="4.0347">
        <ele>348.849274</ele>
        <time>2015-01-09T13:01:43Z</time>
      </trkpt>
      <trkpt lat="44.13227" lon="4.03502">
        <ele>345.992493</ele>
        <time>2015-01-09T13:01:57Z</time>
      </trkpt>
      <trkpt lat="44.13184" lon="4.03532">
        <ele>348.805115</ele>
        <time>2015-01-09T13:02:12Z</time>
      </trkpt>
      <trkpt lat="44.13146" lon="4.03573">
        <ele>349.165588</ele>
        <time>2015-01-09T13:02:27Z</time>
      </trkpt>
      <trkpt lat="44.1312" lon="4.0363">
        <ele>344.22641</ele>
        <time>2015-01-09T13:02:41Z</time>
      </trkpt>
      <trkpt lat="44.13086" lon="4.0368">
        <ele>346.693756</ele>
        <time>2015-01-09T13:02:55Z</time>
      </trkpt>
      <trkpt lat="44.13049" lon="4.0373">
        <ele>346.209259</ele>
        <time>2015-01-09T13:03:09Z</time>
      </trkpt>
      <trkpt lat="44.13003" lon="4.03761">
        <ele>350.35498</ele>
        <time>2015-01-09T13:03:22Z</time>
      </trkpt>
      <trkpt lat="44.12964" lon="4.03803">
        <ele>347.050842</ele>
        <time>2015-01-09T13:03:36Z</time>
      </trkpt>
      <trkpt lat="44.12928" lon="4.03847">
        <ele>342.38382</ele>
        <time>2015-01-09T13:03:50Z</time>
      </trkpt>
      <trkpt lat="44.1289" lon="4.03881">
        <ele>339.564545</ele>
        <time>2015-01-09T13:04:21Z</time>
      </trkpt>
      <trkpt lat="44.12853" lon="4.03911">
        <ele>338.734009</ele>
        <time>2015-01-09T13:04:50Z</time>
      </trkpt>
      <trkpt lat="44.12849" lon="4.03853">
        <ele>345.866302</ele>
        <time>2015-01-09T13:06:29Z</time>
      </trkpt>
      <trkpt lat="44.12853" lon="4.03733">
        <ele>353.914215</ele>
        <time>2015-01-09T13:09:42Z</time>
      </trkpt>
      <trkpt lat="44.12877" lon="4.03676">
        <ele>358.402435</ele>
        <time>2015-01-09T13:10:08Z</time>
      </trkpt>
      <trkpt lat="44.12903" lon="4.03624">
        <ele>362.997894</ele>
        <time>2015-01-09T13:10:35Z</time>
      </trkpt>
      <trkpt lat="44.12939" lon="4.03584">
        <ele>369.300323</ele>
        <time>2015-01-09T13:11:04Z</time>
      </trkpt>
      <trkpt lat="44.12978" lon="4.03551">
        <ele>377.452728</ele>
        <time>2015-01-09T13:11:34Z</time>
      </trkpt>
      <trkpt lat="44.1299" lon="4.03495">
        <ele>376.935608</ele>
        <time>2015-01-09T13:12:06Z</time>
      </trkpt>
      <trkpt lat="44.12995" lon="4.03432">
        <ele>375.349121</ele>
        <time>2015-01-09T13:12:31Z</time>
      </trkpt>
      <trkpt lat="44.13016" lon="4.03377">
        <ele>379.670013</ele>
        <time>2015-01-09T13:12:56Z</time>
      </trkpt>
      <trkpt lat="44.13076" lon="4.03282">
        <ele>389.493134</ele>
        <time>2015-01-09T13:13:57Z</time>
      </trkpt>
      <trkpt lat="44.13104" lon="4.03225">
        <ele>395.724396</ele>
        <time>2015-01-09T13:14:28Z</time>
      </trkpt>
      <trkpt lat="44.13127" lon="4.03171">
        <ele>398.756409</ele>
        <time>2015-01-09T13:14:53Z</time>
      </trkpt>
      <trkpt lat="44.13159" lon="4.0313">
        <ele>403.766663</ele>
        <time>2015-01-09T13:15:26Z</time>
      </trkpt>
      <trkpt lat="44.13184" lon="4.03079">
        <ele>408.361786</ele>
        <time>2015-01-09T13:16:02Z</time>
      </trkpt>
      <trkpt lat="44.13204" lon="4.03022">
        <ele>412.039063</ele>
        <time>2015-01-09T13:16:40Z</time>
      </trkpt>
      <trkpt lat="44.13228" lon="4.02964">
        <ele>415.164642</ele>
        <time>2015-01-09T13:17:15Z</time>
      </trkpt>
      <trkpt lat="44.1324" lon="4.02902">
        <ele>418.117493</ele>
        <time>2015-01-09T13:17:52Z</time>
      </trkpt>
      <trkpt lat="44.13253" lon="4.02841">
        <ele>422.972504</ele>
        <time>2015-01-09T13:18:29Z</time>
      </trkpt>
      <trkpt lat="44.13261" lon="4.02782">
        <ele>426.1875</ele>
        <time>2015-01-09T13:20:40Z</time>
      </trkpt>
      <trkpt lat="44.13265" lon="4.02717">
        <ele>434.147614</ele>
        <time>2015-01-09T13:21:15Z</time>
      </trkpt>
      <trkpt lat="44.13245" lon="4.02665">
        <ele>443.177399</ele>
        <time>2015-01-09T13:21:49Z</time>
      </trkpt>
      <trkpt lat="44.13208" lon="4.02621">
        <ele>449.010834</ele>
        <time>2015-01-09T13:22:24Z</time>
      </trkpt>
      <trkpt lat="44.13162" lon="4.02592">
        <ele>449.633057</ele>
        <time>2015-01-09T13:23:02Z</time>
      </trkpt>
      <trkpt lat="44.13127" lon="4.02554">
        <ele>448.248138</ele>
        <time>2015-01-09T13:23:36Z</time>
      </trkpt>
      <trkpt lat="44.13152" lon="4.02495">
        <ele>454.293457</ele>
        <time>2015-01-09T13:24:11Z</time>
      </trkpt>
      <trkpt lat="44.13172" lon="4.02428">
        <ele>464.09201</ele>
        <time>2015-01-09T13:24:49Z</time>
      </trkpt>
      <trkpt lat="44.13181" lon="4.02362">
        <ele>474.579926</ele>
        <time>2015-01-09T13:25:27Z</time>
      </trkpt>
      <trkpt lat="44.13155" lon="4.02242">
        <ele>480.889923</ele>
        <time>2015-01-09T13:26:34Z</time>
      </trkpt>
      <trkpt lat="44.1315" lon="4.02184">
        <ele>484.751984</ele>
        <time>2015-01-09T13:28:35Z</time>
      </trkpt>
      <trkpt lat="44.13164" lon="4.02122">
        <ele>492.095001</ele>
        <time>2015-01-09T13:29:05Z</time>
      </trkpt>
      <trkpt lat="44.1318" lon="4.02063">
        <ele>498.124878</ele>
        <time>2015-01-09T13:29:37Z</time>
      </trkpt>
      <trkpt lat="44.1319" lon="4.02">
        <ele>494.578003</ele>
        <time>2015-01-09T13:30:06Z</time>
      </trkpt>
      <trkpt lat="44.13217" lon="4.01949">
        <ele>493.089417</ele>
        <time>2015-01-09T13:30:24Z</time>
      </trkpt>
      <trkpt lat="44.13256" lon="4.01909">
        <ele>496.048218</ele>
        <time>2015-01-09T13:30:52Z</time>
      </trkpt>
      <trkpt lat="44.13339" lon="4.01852">
        <ele>505.607788</ele>
        <time>2015-01-09T13:31:49Z</time>
      </trkpt>
      <trkpt lat="44.13375" lon="4.0181">
        <ele>510.008667</ele>
        <time>2015-01-09T13:32:17Z</time>
      </trkpt>
      <trkpt lat="44.13406" lon="4.0176">
        <ele>513.184998</ele>
        <time>2015-01-09T13:32:45Z</time>
      </trkpt>
      <trkpt lat="44.13442" lon="4.01716">
        <ele>514.764709</ele>
        <time>2015-01-09T13:33:13Z</time>
      </trkpt>
      <trkpt lat="44.13462" lon="4.01661">
        <ele>516.686646</ele>
        <time>2015-01-09T13:33:35Z</time>
      </trkpt>
      <trkpt lat="44.13455" lon="4.01594">
        <ele>523.30011</ele>
        <time>2015-01-09T13:33:59Z</time>
      </trkpt>
      <trkpt lat="44.13432" lon="4.01535">
        <ele>527.212463</ele>
        <time>2015-01-09T13:34:24Z</time>
      </trkpt>
      <trkpt lat="44.13393" lon="4.01496">
        <ele>526.445007</ele>
        <time>2015-01-09T13:34:50Z</time>
      </trkpt>
      <trkpt lat="44.13355" lon="4.01453">
        <ele>525.60376</ele>
        <time>2015-01-09T13:44:56Z</time>
      </trkpt>
      <trkpt lat="44.13376" lon="4.01413">
        <ele>521.152527</ele>
        <time>2015-01-09T13:45:12Z</time>
      </trkpt>
      <trkpt lat="44.13419" lon="4.01382">
        <ele>519.433228</ele>
        <time>2015-01-09T13:45:24Z</time>
      </trkpt>
      <trkpt lat="44.1346" lon="4.01359">
        <ele>522.112</ele>
        <time>2015-01-09T13:45:31Z</time>
      </trkpt>
      <trkpt lat="44.13489" lon="4.01307">
        <ele>516.166626</ele>
        <time>2015-01-09T13:45:38Z</time>
      </trkpt>
      <trkpt lat="44.13522" lon="4.01257">
        <ele>511.109985</ele>
        <time>2015-01-09T13:45:44Z</time>
      </trkpt>
      <trkpt lat="44.13562" lon="4.01227">
        <ele>502.709991</ele>
        <time>2015-01-09T13:45:51Z</time>
      </trkpt>
      <trkpt lat="44.13588" lon="4.01172">
        <ele>489.367218</ele>
        <time>2015-01-09T13:46:01Z</time>
      </trkpt>
      <trkpt lat="44.13601" lon="4.01111">
        <ele>481.0625</ele>
        <time>2015-01-09T13:46:10Z</time>
      </trkpt>
      <trkpt lat="44.13573" lon="4.01059">
        <ele>480.302887</ele>
        <time>2015-01-09T13:46:16Z</time>
      </trkpt>
      <trkpt lat="44.13551" lon="4.00997">
        <ele>470.561951</ele>
        <time>2015-01-09T13:46:22Z</time>
      </trkpt>
      <trkpt lat="44.13527" lon="4.00938">
        <ele>463.335815</ele>
        <time>2015-01-09T13:46:28Z</time>
      </trkpt>
      <trkpt lat="44.13511" lon="4.00885">
        <ele>461.026581</ele>
        <time>2015-01-09T13:46:39Z</time>
      </trkpt>
      <trkpt lat="44.13474" lon="4.00921">
        <ele>458.92749</ele>
        <time>2015-01-09T13:46:47Z</time>
      </trkpt>
      <trkpt lat="44.13449" lon="4.00982">
        <ele>456.007416</ele>
        <time>2015-01-09T13:46:54Z</time>
      </trkpt>
      <trkpt lat="44.13436" lon="4.01047">
        <ele>456.308655</ele>
        <time>2015-01-09T13:47:00Z</time>
      </trkpt>
      <trkpt lat="44.13412" lon="4.01106">
        <ele>454.12262</ele>
        <time>2015-01-09T13:47:07Z</time>
      </trkpt>
      <trkpt lat="44.13375" lon="4.01138">
        <ele>451.87088</ele>
        <time>2015-01-09T13:47:16Z</time>
      </trkpt>
      <trkpt lat="44.13327" lon="4.01131">
        <ele>450.701538</ele>
        <time>2015-01-09T13:47:25Z</time>
      </trkpt>
      <trkpt lat="44.13303" lon="4.01081">
        <ele>447.54187</ele>
        <time>2015-01-09T13:47:33Z</time>
      </trkpt>
      <trkpt lat="44.13328" lon="4.0107">
        <ele>437.76825</ele>
        <time>2015-01-09T13:47:42Z</time>
      </trkpt>
      <trkpt lat="44.13302" lon="4.01028">
        <ele>433.759125</ele>
        <time>2015-01-09T13:47:49Z</time>
      </trkpt>
      <trkpt lat="44.13283" lon="4.00969">
        <ele>425.271912</ele>
        <time>2015-01-09T13:47:55Z</time>
      </trkpt>
      <trkpt lat="44.13244" lon="4.00933">
        <ele>425.041748</ele>
        <time>2015-01-09T13:48:01Z</time>
      </trkpt>
      <trkpt lat="44.13202" lon="4.00896">
        <ele>422.073761</ele>
        <time>2015-01-09T13:48:07Z</time>
      </trkpt>
      <trkpt lat="44.13165" lon="4.00848">
        <ele>414.066986</ele>
        <time>2015-01-09T13:48:12Z</time>
      </trkpt>
      <trkpt lat="44.13122" lon="4.00811">
        <ele>411.428894</ele>
        <time>2015-01-09T13:48:17Z</time>
      </trkpt>
      <trkpt lat="44.13075" lon="4.00798">
        <ele>411.14502</ele>
        <time>2015-01-09T13:48:23Z</time>
      </trkpt>
      <trkpt lat="44.13045" lon="4.00762">
        <ele>405.59201</ele>
        <time>2015-01-09T13:48:31Z</time>
      </trkpt>
      <trkpt lat="44.13009" lon="4.00717">
        <ele>398.728058</ele>
        <time>2015-01-09T13:48:38Z</time>
      </trkpt>
      <trkpt lat="44.12968" lon="4.00682">
        <ele>393.277496</ele>
        <time>2015-01-09T13:48:44Z</time>
      </trkpt>
      <trkpt lat="44.12949" lon="4.00661">
        <ele>388.255005</ele>
        <time>2015-01-09T13:48:52Z</time>
      </trkpt>
      <trkpt lat="44.12996" lon="4.00666">
        <ele>385.657959</ele>
        <time>2015-01-09T13:48:59Z</time>
      </trkpt>
      <trkpt lat="44.13039" lon="4.00686">
        <ele>381.538361</ele>
        <time>2015-01-09T13:49:05Z</time>
      </trkpt>
      <trkpt lat="44.13081" lon="4.00719">
        <ele>381.606689</ele>
        <time>2015-01-09T13:49:12Z</time>
      </trkpt>
      <trkpt lat="44.13127" lon="4.00717">
        <ele>374.408813</ele>
        <time>2015-01-09T13:49:19Z</time>
      </trkpt>
      <trkpt lat="44.13172" lon="4.00735">
        <ele>373.235718</ele>
        <time>2015-01-09T13:49:25Z</time>
      </trkpt>
      <trkpt lat="44.13221" lon="4.00738">
        <ele>367.237244</ele>
        <time>2015-01-09T13:49:31Z</time>
      </trkpt>
      <trkpt lat="44.1324" lon="4.00723">
        <ele>369.357788</ele>
        <time>2015-01-09T13:49:40Z</time>
      </trkpt>
      <trkpt lat="44.13209" lon="4.00677">
        <ele>365.956421</ele>
        <time>2015-01-09T13:50:31Z</time>
      </trkpt>
      <trkpt lat="44.13181" lon="4.00622">
        <ele>364.08844</ele>
        <time>2015-01-09T13:50:44Z</time>
      </trkpt>
      <trkpt lat="44.13147" lon="4.00569">
        <ele>361.111511</ele>
        <time>2015-01-09T13:50:52Z</time>
      </trkpt>
      <trkpt lat="44.13105" lon="4.00528">
        <ele>354.461517</ele>
        <time>2015-01-09T13:50:59Z</time>
      </trkpt>
      <trkpt lat="44.1307" lon="4.00473">
        <ele>351.623718</ele>
        <time>2015-01-09T13:51:06Z</time>
      </trkpt>
      <trkpt lat="44.13032" lon="4.00431">
        <ele>341.367249</ele>
        <time>2015-01-09T13:51:13Z</time>
      </trkpt>
      <trkpt lat="44.13031" lon="4.00368">
        <ele>340.296265</ele>
        <time>2015-01-09T13:51:20Z</time>
      </trkpt>
      <trkpt lat="44.13033" lon="4.00293">
        <ele>334.051666</ele>
        <time>2015-01-09T13:51:26Z</time>
      </trkpt>
      <trkpt lat="44.13038" lon="4.00229">
        <ele>328.406097</ele>
        <time>2015-01-09T13:51:31Z</time>
      </trkpt>
      <trkpt lat="44.13036" lon="4.00165">
        <ele>325.667328</ele>
        <time>2015-01-09T13:51:38Z</time>
      </trkpt>
      <trkpt lat="44.13049" lon="4.00104">
        <ele>325.958313</ele>
        <time>2015-01-09T13:51:48Z</time>
      </trkpt>
      <trkpt lat="44.13076" lon="4.00052">
        <ele>328.292511</ele>
        <time>2015-01-09T13:51:58Z</time>
      </trkpt>
      <trkpt lat="44.1308" lon="3.99994">
        <ele>328.966919</ele>
        <time>2015-01-09T13:52:07Z</time>
      </trkpt>
      <trkpt lat="44.13034" lon="3.99986">
        <ele>330.187988</ele>
        <time>2015-01-09T13:52:19Z</time>
      </trkpt>
      <trkpt lat="44.13014" lon="3.9995">
        <ele>333.660858</ele>
        <time>2015-01-09T13:53:34Z</time>
      </trkpt>
      <trkpt lat="44.12995" lon="3.99887">
        <ele>342.239838</ele>
        <time>2015-01-09T13:54:04Z</time>
      </trkpt>
      <trkpt lat="44.12969" lon="3.99828">
        <ele>349.327759</ele>
        <time>2015-01-09T13:54:41Z</time>
      </trkpt>
      <trkpt lat="44.12953" lon="3.99763">
        <ele>351.084503</ele>
        <time>2015-01-09T13:55:15Z</time>
      </trkpt>
      <trkpt lat="44.12935" lon="3.99699">
        <ele>356.760986</ele>
        <time>2015-01-09T13:55:54Z</time>
      </trkpt>
      <trkpt lat="44.12912" lon="3.9964">
        <ele>357.758484</ele>
        <time>2015-01-09T13:56:34Z</time>
      </trkpt>
      <trkpt lat="44.12887" lon="3.99585">
        <ele>365.511597</ele>
        <time>2015-01-09T13:57:13Z</time>
      </trkpt>
      <trkpt lat="44.1285" lon="3.99459">
        <ele>370.581757</ele>
        <time>2015-01-09T13:58:15Z</time>
      </trkpt>
      <trkpt lat="44.12837" lon="3.99393">
        <ele>367.403687</ele>
        <time>2015-01-09T13:58:46Z</time>
      </trkpt>
      <trkpt lat="44.12827" lon="3.99328">
        <ele>372.033386</ele>
        <time>2015-01-09T13:59:17Z</time>
      </trkpt>
      <trkpt lat="44.1283" lon="3.99258">
        <ele>378.648254</ele>
        <time>2015-01-09T13:59:50Z</time>
      </trkpt>
      <trkpt lat="44.12842" lon="3.99191">
        <ele>382.626251</ele>
        <time>2015-01-09T14:00:20Z</time>
      </trkpt>
      <trkpt lat="44.12856" lon="3.99132">
        <ele>386.463745</ele>
        <time>2015-01-09T14:00:48Z</time>
      </trkpt>
      <trkpt lat="44.12873" lon="3.99068">
        <ele>389.704163</ele>
        <time>2015-01-09T14:01:17Z</time>
      </trkpt>
      <trkpt lat="44.12891" lon="3.99005">
        <ele>394.918915</ele>
        <time>2015-01-09T14:01:46Z</time>
      </trkpt>
      <trkpt lat="44.12901" lon="3.98935">
        <ele>397.236877</ele>
        <time>2015-01-09T14:02:18Z</time>
      </trkpt>
      <trkpt lat="44.12886" lon="3.98952">
        <ele>397.434692</ele>
        <time>2015-01-09T14:02:51Z</time>
      </trkpt>
      <trkpt lat="44.12858" lon="3.9901">
        <ele>404.401245</ele>
        <time>2015-01-09T14:03:28Z</time>
      </trkpt>
      <trkpt lat="44.12823" lon="3.99058">
        <ele>407.605225</ele>
        <time>2015-01-09T14:04:03Z</time>
      </trkpt>
      <trkpt lat="44.12834" lon="3.99023">
        <ele>410.764008</ele>
        <time>2015-01-09T14:04:41Z</time>
      </trkpt>
      <trkpt lat="44.12846" lon="3.98956">
        <ele>417.338623</ele>
        <time>2015-01-09T14:05:21Z</time>
      </trkpt>
      <trkpt lat="44.12836" lon="3.98891">
        <ele>428.28598</ele>
        <time>2015-01-09T14:06:01Z</time>
      </trkpt>
      <trkpt lat="44.12892" lon="3.98779">
        <ele>428.7052</ele>
        <time>2015-01-09T14:07:16Z</time>
      </trkpt>
      <trkpt lat="44.12917" lon="3.98721">
        <ele>434.014709</ele>
        <time>2015-01-09T14:07:50Z</time>
      </trkpt>
      <trkpt lat="44.12948" lon="3.9867">
        <ele>435.680298</ele>
        <time>2015-01-09T14:08:22Z</time>
      </trkpt>
      <trkpt lat="44.1298" lon="3.98621">
        <ele>439.107635</ele>
        <time>2015-01-09T14:08:51Z</time>
      </trkpt>
      <trkpt lat="44.13" lon="3.98568">
        <ele>440.795837</ele>
        <time>2015-01-09T14:12:44Z</time>
      </trkpt>
      <trkpt lat="44.13026" lon="3.98515">
        <ele>439.567383</ele>
        <time>2015-01-09T14:12:56Z</time>
      </trkpt>
      <trkpt lat="44.13003" lon="3.9847">
        <ele>436.290009</ele>
        <time>2015-01-09T14:13:10Z</time>
      </trkpt>
      <trkpt lat="44.12973" lon="3.98423">
        <ele>432.190002</ele>
        <time>2015-01-09T14:13:21Z</time>
      </trkpt>
      <trkpt lat="44.12943" lon="3.98372">
        <ele>429.472504</ele>
        <time>2015-01-09T14:13:32Z</time>
      </trkpt>
      <trkpt lat="44.12925" lon="3.98312">
        <ele>426.59787</ele>
        <time>2015-01-09T14:13:44Z</time>
      </trkpt>
      <trkpt lat="44.12918" lon="3.98245">
        <ele>426.744873</ele>
        <time>2015-01-09T14:13:56Z</time>
      </trkpt>
      <trkpt lat="44.12888" lon="3.98198">
        <ele>420.181305</ele>
        <time>2015-01-09T14:14:08Z</time>
      </trkpt>
      <trkpt lat="44.12868" lon="3.9814">
        <ele>418.66687</ele>
        <time>2015-01-09T14:14:17Z</time>
      </trkpt>
      <trkpt lat="44.12855" lon="3.98079">
        <ele>416.500153</ele>
        <time>2015-01-09T14:14:30Z</time>
      </trkpt>
      <trkpt lat="44.12846" lon="3.98018">
        <ele>410.538025</ele>
        <time>2015-01-09T14:14:40Z</time>
      </trkpt>
      <trkpt lat="44.12876" lon="3.97978">
        <ele>406.735291</ele>
        <time>2015-01-09T14:14:52Z</time>
      </trkpt>
      <trkpt lat="44.12923" lon="3.97966">
        <ele>404.503174</ele>
        <time>2015-01-09T14:15:05Z</time>
      </trkpt>
      <trkpt lat="44.12969" lon="3.97961">
        <ele>402.141998</ele>
        <time>2015-01-09T14:15:16Z</time>
      </trkpt>
      <trkpt lat="44.13015" lon="3.97947">
        <ele>396.84726</ele>
        <time>2015-01-09T14:15:29Z</time>
      </trkpt>
      <trkpt lat="44.13061" lon="3.97942">
        <ele>389.685089</ele>
        <time>2015-01-09T14:15:41Z</time>
      </trkpt>
      <trkpt lat="44.13108" lon="3.97958">
        <ele>379.342499</ele>
        <time>2015-01-09T14:15:55Z</time>
      </trkpt>
      <trkpt lat="44.13139" lon="3.98006">
        <ele>381.185883</ele>
        <time>2015-01-09T14:16:07Z</time>
      </trkpt>
      <trkpt lat="44.13176" lon="3.98052">
        <ele>385.024475</ele>
        <time>2015-01-09T14:16:16Z</time>
      </trkpt>
      <trkpt lat="44.13198" lon="3.9803">
        <ele>381.532806</ele>
        <time>2015-01-09T14:16:26Z</time>
      </trkpt>
      <trkpt lat="44.13189" lon="3.9797">
        <ele>367.450439</ele>
        <time>2015-01-09T14:17:23Z</time>
      </trkpt>
      <trkpt lat="44.13216" lon="3.97917">
        <ele>362.209503</ele>
        <time>2015-01-09T14:17:34Z</time>
      </trkpt>
      <trkpt lat="44.13262" lon="3.97899">
        <ele>363.639099</ele>
        <time>2015-01-09T14:17:43Z</time>
      </trkpt>
      <trkpt lat="44.13303" lon="3.97866">
        <ele>360.692688</ele>
        <time>2015-01-09T14:17:52Z</time>
      </trkpt>
      <trkpt lat="44.13347" lon="3.97855">
        <ele>362.059998</ele>
        <time>2015-01-09T14:18:04Z</time>
      </trkpt>
      <trkpt lat="44.13426" lon="3.97784">
        <ele>365.3461</ele>
        <time>2015-01-09T14:18:39Z</time>
      </trkpt>
      <trkpt lat="44.13467" lon="3.97749">
        <ele>368.524933</ele>
        <time>2015-01-09T14:19:02Z</time>
      </trkpt>
      <trkpt lat="44.13505" lon="3.97714">
        <ele>368.511261</ele>
        <time>2015-01-09T14:19:24Z</time>
      </trkpt>
      <trkpt lat="44.13472" lon="3.97688">
        <ele>371.465118</ele>
        <time>2015-01-09T14:19:47Z</time>
      </trkpt>
      <trkpt lat="44.13425" lon="3.9769">
        <ele>375.497498</ele>
        <time>2015-01-09T14:20:10Z</time>
      </trkpt>
      <trkpt lat="44.13377" lon="3.97704">
        <ele>377.469055</ele>
        <time>2015-01-09T14:20:35Z</time>
      </trkpt>
      <trkpt lat="44.13334" lon="3.97735">
        <ele>375.458801</ele>
        <time>2015-01-09T14:20:49Z</time>
      </trkpt>
      <trkpt lat="44.13289" lon="3.97754">
        <ele>374.885651</ele>
        <time>2015-01-09T14:21:03Z</time>
      </trkpt>
      <trkpt lat="44.13242" lon="3.97764">
        <ele>377.46225</ele>
        <time>2015-01-09T14:21:25Z</time>
      </trkpt>
      <trkpt lat="44.13196" lon="3.97757">
        <ele>379.135925</ele>
        <time>2015-01-09T14:21:53Z</time>
      </trkpt>
      <trkpt lat="44.13169" lon="3.97712">
        <ele>383.531464</ele>
        <time>2015-01-09T14:23:29Z</time>
      </trkpt>
      <trkpt lat="44.13174" lon="3.97648">
        <ele>390.205261</ele>
        <time>2015-01-09T14:23:53Z</time>
      </trkpt>
      <trkpt lat="44.13163" lon="3.97591">
        <ele>399.395691</ele>
        <time>2015-01-09T14:24:24Z</time>
      </trkpt>
      <trkpt lat="44.13118" lon="3.97583">
        <ele>393.066986</ele>
        <time>2015-01-09T14:25:30Z</time>
      </trkpt>
      <trkpt lat="44.13073" lon="3.97599">
        <ele>387.08139</ele>
        <time>2015-01-09T14:25:47Z</time>
      </trkpt>
      <trkpt lat="44.13044" lon="3.97549">
        <ele>396.521118</ele>
        <time>2015-01-09T14:26:19Z</time>
      </trkpt>
      <trkpt lat="44.12953" lon="3.9759">
        <ele>386.871765</ele>
        <time>2015-01-09T14:26:46Z</time>
      </trkpt>
      <trkpt lat="44.12909" lon="3.97602">
        <ele>380.379852</ele>
        <time>2015-01-09T14:26:58Z</time>
      </trkpt>
      <trkpt lat="44.12862" lon="3.97599">
        <ele>373.63501</ele>
        <time>2015-01-09T14:27:13Z</time>
      </trkpt>
      <trkpt lat="44.12844" lon="3.97592">
        <ele>369.422485</ele>
        <time>2015-01-09T14:28:46Z</time>
      </trkpt>
      <trkpt lat="44.12804" lon="3.97562">
        <ele>367.761597</ele>
        <time>2015-01-09T14:31:18Z</time>
      </trkpt>
      <trkpt lat="44.12758" lon="3.97559">
        <ele>363.551361</ele>
        <time>2015-01-09T14:31:35Z</time>
      </trkpt>
      <trkpt lat="44.1272" lon="3.97598">
        <ele>355.782898</ele>
        <time>2015-01-09T14:31:49Z</time>
      </trkpt>
      <trkpt lat="44.12679" lon="3.97635">
        <ele>351.736755</ele>
        <time>2015-01-09T14:31:58Z</time>
      </trkpt>
      <trkpt lat="44.12635" lon="3.97648">
        <ele>349.892334</ele>
        <time>2015-01-09T14:32:08Z</time>
      </trkpt>
      <trkpt lat="44.12586" lon="3.97653">
        <ele>344.154022</ele>
        <time>2015-01-09T14:32:17Z</time>
      </trkpt>
      <trkpt lat="44.12539" lon="3.9767">
        <ele>343.621399</ele>
        <time>2015-01-09T14:32:29Z</time>
      </trkpt>
      <trkpt lat="44.12493" lon="3.97693">
        <ele>344.212494</ele>
        <time>2015-01-09T14:32:40Z</time>
      </trkpt>
      <trkpt lat="44.12445" lon="3.97708">
        <ele>343.11087</ele>
        <time>2015-01-09T14:32:51Z</time>
      </trkpt>
      <trkpt lat="44.12402" lon="3.97732">
        <ele>340.570007</ele>
        <time>2015-01-09T14:33:03Z</time>
      </trkpt>
      <trkpt lat="44.12354" lon="3.97746">
        <ele>336.782654</ele>
        <time>2015-01-09T14:33:16Z</time>
      </trkpt>
      <trkpt lat="44.12309" lon="3.97742">
        <ele>330.653778</ele>
        <time>2015-01-09T14:33:27Z</time>
      </trkpt>
      <trkpt lat="44.12264" lon="3.97722">
        <ele>327.15036</ele>
        <time>2015-01-09T14:33:42Z</time>
      </trkpt>
      <trkpt lat="44.12218" lon="3.97699">
        <ele>320.174194</ele>
        <time>2015-01-09T14:33:55Z</time>
      </trkpt>
      <trkpt lat="44.12196" lon="3.97642">
        <ele>319.719788</ele>
        <time>2015-01-09T14:34:08Z</time>
      </trkpt>
      <trkpt lat="44.12177" lon="3.9758">
        <ele>317.03186</ele>
        <time>2015-01-09T14:35:10Z</time>
      </trkpt>
      <trkpt lat="44.12156" lon="3.97523">
        <ele>312.050995</ele>
        <time>2015-01-09T14:35:19Z</time>
      </trkpt>
      <trkpt lat="44.12125" lon="3.97471">
        <ele>300.502502</ele>
        <time>2015-01-09T14:35:28Z</time>
      </trkpt>
      <trkpt lat="44.12137" lon="3.9741">
        <ele>296.637909</ele>
        <time>2015-01-09T14:35:38Z</time>
      </trkpt>
      <trkpt lat="44.12175" lon="3.97369">
        <ele>285.267975</ele>
        <time>2015-01-09T14:35:47Z</time>
      </trkpt>
      <trkpt lat="44.12223" lon="3.97366">
        <ele>286.86026</ele>
        <time>2015-01-09T14:35:55Z</time>
      </trkpt>
      <trkpt lat="44.1224" lon="3.97345">
        <ele>294.207581</ele>
        <time>2015-01-09T14:36:42Z</time>
      </trkpt>
      <trkpt lat="44.12197" lon="3.97325">
        <ele>292.764679</ele>
        <time>2015-01-09T14:36:54Z</time>
      </trkpt>
      <trkpt lat="44.12151" lon="3.97327">
        <ele>286.991058</ele>
        <time>2015-01-09T14:37:04Z</time>
      </trkpt>
      <trkpt lat="44.12108" lon="3.97352">
        <ele>285.11499</ele>
        <time>2015-01-09T14:37:23Z</time>
      </trkpt>
      <trkpt lat="44.12075" lon="3.97396">
        <ele>284.597931</ele>
        <time>2015-01-09T14:37:37Z</time>
      </trkpt>
      <trkpt lat="44.12039" lon="3.9744">
        <ele>279.390564</ele>
        <time>2015-01-09T14:37:48Z</time>
      </trkpt>
      <trkpt lat="44.11998" lon="3.97442">
        <ele>279.859009</ele>
        <time>2015-01-09T14:38:00Z</time>
      </trkpt>
      <trkpt lat="44.11957" lon="3.97411">
        <ele>277.790253</ele>
        <time>2015-01-09T14:38:11Z</time>
      </trkpt>
      <trkpt lat="44.11915" lon="3.97383">
        <ele>281.122986</ele>
        <time>2015-01-09T14:38:22Z</time>
      </trkpt>
      <trkpt lat="44.11872" lon="3.97359">
        <ele>274.364594</ele>
        <time>2015-01-09T14:38:33Z</time>
      </trkpt>
      <trkpt lat="44.11831" lon="3.97328">
        <ele>277.07312</ele>
        <time>2015-01-09T14:38:48Z</time>
      </trkpt>
      <trkpt lat="44.11796" lon="3.97287">
        <ele>273.988129</ele>
        <time>2015-01-09T14:38:59Z</time>
      </trkpt>
      <trkpt lat="44.11749" lon="3.97269">
        <ele>274.256866</ele>
        <time>2015-01-09T14:39:09Z</time>
      </trkpt>
      <trkpt lat="44.117" lon="3.97271">
        <ele>269.791504</ele>
        <time>2015-01-09T14:39:18Z</time>
      </trkpt>
      <trkpt lat="44.11663" lon="3.97302">
        <ele>269.765381</ele>
        <time>2015-01-09T14:39:47Z</time>
      </trkpt>
      <trkpt lat="44.11618" lon="3.9732">
        <ele>271.231262</ele>
        <time>2015-01-09T14:39:58Z</time>
      </trkpt>
      <trkpt lat="44.11573" lon="3.97347">
        <ele>268.832672</ele>
        <time>2015-01-09T14:40:14Z</time>
      </trkpt>
      <trkpt lat="44.11536" lon="3.97391">
        <ele>264.370758</ele>
        <time>2015-01-09T14:40:23Z</time>
      </trkpt>
      <trkpt lat="44.11507" lon="3.97441">
        <ele>259.980072</ele>
        <time>2015-01-09T14:40:30Z</time>
      </trkpt>
      <trkpt lat="44.11486" lon="3.97498">
        <ele>259.073425</ele>
        <time>2015-01-09T14:40:37Z</time>
      </trkpt>
      <trkpt lat="44.11444" lon="3.97618">
        <ele>256.131744</ele>
        <time>2015-01-09T14:40:54Z</time>
      </trkpt>
      <trkpt lat="44.11426" lon="3.97676">
        <ele>250.796936</ele>
        <time>2015-01-09T14:41:02Z</time>
      </trkpt>
      <trkpt lat="44.11418" lon="3.97739">
        <ele>250.367493</ele>
        <time>2015-01-09T14:41:09Z</time>
      </trkpt>
      <trkpt lat="44.11418" lon="3.97806">
        <ele>250.46933</ele>
        <time>2015-01-09T14:41:16Z</time>
      </trkpt>
      <trkpt lat="44.11424" lon="3.97876">
        <ele>248.339462</ele>
        <time>2015-01-09T14:41:23Z</time>
      </trkpt>
      <trkpt lat="44.11417" lon="3.97945">
        <ele>244.810608</ele>
        <time>2015-01-09T14:41:30Z</time>
      </trkpt>
      <trkpt lat="44.11399" lon="3.98003">
        <ele>245.957001</ele>
        <time>2015-01-09T14:41:37Z</time>
      </trkpt>
      <trkpt lat="44.11366" lon="3.98044">
        <ele>242.234482</ele>
        <time>2015-01-09T14:41:48Z</time>
      </trkpt>
      <trkpt lat="44.11352" lon="3.98109">
        <ele>246.791595</ele>
        <time>2015-01-09T14:41:59Z</time>
      </trkpt>
      <trkpt lat="44.11309" lon="3.9815">
        <ele>243.459686</ele>
        <time>2015-01-09T14:42:08Z</time>
      </trkpt>
      <trkpt lat="44.11266" lon="3.98173">
        <ele>243.291016</ele>
        <time>2015-01-09T14:42:14Z</time>
      </trkpt>
      <trkpt lat="44.11218" lon="3.98195">
        <ele>240.596039</ele>
        <time>2015-01-09T14:42:20Z</time>
      </trkpt>
      <trkpt lat="44.11175" lon="3.98228">
        <ele>239.417801</ele>
        <time>2015-01-09T14:42:26Z</time>
      </trkpt>
      <trkpt lat="44.11138" lon="3.98263">
        <ele>239.606628</ele>
        <time>2015-01-09T14:42:32Z</time>
      </trkpt>
      <trkpt lat="44.11102" lon="3.9831">
        <ele>237.183151</ele>
        <time>2015-01-09T14:42:40Z</time>
      </trkpt>
      <trkpt lat="44.11041" lon="3.98421">
        <ele>238.815643</ele>
        <time>2015-01-09T14:42:54Z</time>
      </trkpt>
      <trkpt lat="44.11012" lon="3.98477">
        <ele>234.49649</ele>
        <time>2015-01-09T14:43:01Z</time>
      </trkpt>
      <trkpt lat="44.11004" lon="3.9854">
        <ele>235.073029</ele>
        <time>2015-01-09T14:43:08Z</time>
      </trkpt>
      <trkpt lat="44.10994" lon="3.98606">
        <ele>234.613068</ele>
        <time>2015-01-09T14:43:16Z</time>
      </trkpt>
      <trkpt lat="44.10977" lon="3.98738">
        <ele>232.510101</ele>
        <time>2015-01-09T14:43:31Z</time>
      </trkpt>
      <trkpt lat="44.1096" lon="3.98806">
        <ele>227.239487</ele>
        <time>2015-01-09T14:43:39Z</time>
      </trkpt>
      <trkpt lat="44.1093" lon="3.98858">
        <ele>229.02832</ele>
        <time>2015-01-09T14:43:49Z</time>
      </trkpt>
      <trkpt lat="44.10902" lon="3.9891">
        <ele>232.9039</ele>
        <time>2015-01-09T14:43:58Z</time>
      </trkpt>
      <trkpt lat="44.10865" lon="3.98956">
        <ele>227.232529</ele>
        <time>2015-01-09T14:44:10Z</time>
      </trkpt>
      <trkpt lat="44.10839" lon="3.99009">
        <ele>232.517426</ele>
        <time>2015-01-09T14:44:24Z</time>
      </trkpt>
      <trkpt lat="44.1082" lon="3.99072">
        <ele>233.885101</ele>
        <time>2015-01-09T14:44:45Z</time>
      </trkpt>
      <trkpt lat="44.10817" lon="3.99137">
        <ele>232.11644</ele>
        <time>2015-01-09T14:45:01Z</time>
      </trkpt>
      <trkpt lat="44.10836" lon="3.99199">
        <ele>228.801315</ele>
        <time>2015-01-09T14:45:12Z</time>
      </trkpt>
      <trkpt lat="44.10868" lon="3.99247">
        <ele>228.1595</ele>
        <time>2015-01-09T14:45:20Z</time>
      </trkpt>
      <trkpt lat="44.1093" lon="3.99352">
        <ele>225.292969</ele>
        <time>2015-01-09T14:45:34Z</time>
      </trkpt>
      <trkpt lat="44.10972" lon="3.99395">
        <ele>225.649521</ele>
        <time>2015-01-09T14:45:42Z</time>
      </trkpt>
      <trkpt lat="44.11007" lon="3.9944">
        <ele>222.697632</ele>
        <time>2015-01-09T14:45:49Z</time>
      </trkpt>
      <trkpt lat="44.11041" lon="3.99486">
        <ele>213.912308</ele>
        <time>2015-01-09T14:45:57Z</time>
      </trkpt>
      <trkpt lat="44.11086" lon="3.99517">
        <ele>210.794556</ele>
        <time>2015-01-09T14:46:07Z</time>
      </trkpt>
      <trkpt lat="44.11072" lon="3.99524">
        <ele>209.707809</ele>
        <time>2015-01-09T14:46:21Z</time>
      </trkpt>
      <trkpt lat="44.11023" lon="3.99501">
        <ele>207.97113</ele>
        <time>2015-01-09T14:46:29Z</time>
      </trkpt>
      <trkpt lat="44.10976" lon="3.99474">
        <ele>210.626175</ele>
        <time>2015-01-09T14:46:35Z</time>
      </trkpt>
      <trkpt lat="44.10925" lon="3.99459">
        <ele>207.753372</ele>
        <time>2015-01-09T14:46:41Z</time>
      </trkpt>
      <trkpt lat="44.10873" lon="3.99446">
        <ele>204.050034</ele>
        <time>2015-01-09T14:46:47Z</time>
      </trkpt>
      <trkpt lat="44.1083" lon="3.9942">
        <ele>202.309998</ele>
        <time>2015-01-09T14:46:52Z</time>
      </trkpt>
      <trkpt lat="44.10782" lon="3.994">
        <ele>200.469223</ele>
        <time>2015-01-09T14:46:57Z</time>
      </trkpt>
      <trkpt lat="44.10736" lon="3.99384">
        <ele>198.199539</ele>
        <time>2015-01-09T14:47:02Z</time>
      </trkpt>
      <trkpt lat="44.10693" lon="3.99357">
        <ele>195.287796</ele>
        <time>2015-01-09T14:47:08Z</time>
      </trkpt>
      <trkpt lat="44.10649" lon="3.99347">
        <ele>196.061005</ele>
        <time>2015-01-09T14:47:16Z</time>
      </trkpt>
      <trkpt lat="44.10624" lon="3.99405">
        <ele>198.183746</ele>
        <time>2015-01-09T14:47:27Z</time>
      </trkpt>
      <trkpt lat="44.10606" lon="3.99465">
        <ele>197.098755</ele>
        <time>2015-01-09T14:47:36Z</time>
      </trkpt>
      <trkpt lat="44.10573" lon="3.9951">
        <ele>195.972153</ele>
        <time>2015-01-09T14:47:44Z</time>
      </trkpt>
      <trkpt lat="44.1054" lon="3.99564">
        <ele>195.181244</ele>
        <time>2015-01-09T14:47:52Z</time>
      </trkpt>
      <trkpt lat="44.10496" lon="3.99597">
        <ele>194.443481</ele>
        <time>2015-01-09T14:48:00Z</time>
      </trkpt>
      <trkpt lat="44.10406" lon="3.99637">
        <ele>190.954453</ele>
        <time>2015-01-09T14:48:14Z</time>
      </trkpt>
      <trkpt lat="44.1036" lon="3.9966">
        <ele>190.980637</ele>
        <time>2015-01-09T14:48:22Z</time>
      </trkpt>
      <trkpt lat="44.1037" lon="3.99713">
        <ele>192.446152</ele>
        <time>2015-01-09T14:48:33Z</time>
      </trkpt>
      <trkpt lat="44.104" lon="3.99755">
        <ele>199.257706</ele>
        <time>2015-01-09T14:48:54Z</time>
      </trkpt>
      <trkpt lat="44.1041" lon="3.99818">
        <ele>201.361572</ele>
        <time>2015-01-09T14:49:21Z</time>
      </trkpt>
      <trkpt lat="44.10433" lon="3.99877">
        <ele>204.282593</ele>
        <time>2015-01-09T14:49:50Z</time>
      </trkpt>
      <trkpt lat="44.10452" lon="3.99938">
        <ele>205.38063</ele>
        <time>2015-01-09T14:50:22Z</time>
      </trkpt>
      <trkpt lat="44.10437" lon="4.00013">
        <ele>208.208694</ele>
        <time>2015-01-09T14:50:57Z</time>
      </trkpt>
      <trkpt lat="44.1042" lon="4.0008">
        <ele>212.728851</ele>
        <time>2015-01-09T14:51:28Z</time>
      </trkpt>
      <trkpt lat="44.10422" lon="4.00151">
        <ele>216.255295</ele>
        <time>2015-01-09T14:51:56Z</time>
      </trkpt>
      <trkpt lat="44.10446" lon="4.00211">
        <ele>223.360077</ele>
        <time>2015-01-09T14:52:22Z</time>
      </trkpt>
      <trkpt lat="44.10462" lon="4.00274">
        <ele>225.035004</ele>
        <time>2015-01-09T14:52:38Z</time>
      </trkpt>
      <trkpt lat="44.1047" lon="4.00341">
        <ele>226.856247</ele>
        <time>2015-01-09T14:52:55Z</time>
      </trkpt>
      <trkpt lat="44.10474" lon="4.00415">
        <ele>229.562775</ele>
        <time>2015-01-09T14:53:07Z</time>
      </trkpt>
      <trkpt lat="44.10482" lon="4.00479">
        <ele>231.4823</ele>
        <time>2015-01-09T14:53:17Z</time>
      </trkpt>
      <trkpt lat="44.10493" lon="4.00546">
        <ele>230.868042</ele>
        <time>2015-01-09T14:53:27Z</time>
      </trkpt>
      <trkpt lat="44.10532" lon="4.00582">
        <ele>232.065002</ele>
        <time>2015-01-09T14:53:37Z</time>
      </trkpt>
      <trkpt lat="44.10541" lon="4.00622">
        <ele>224.769257</ele>
        <time>2015-01-09T14:53:49Z</time>
      </trkpt>
      <trkpt lat="44.10499" lon="4.00643">
        <ele>227.627563</ele>
        <time>2015-01-09T14:54:09Z</time>
      </trkpt>
      <trkpt lat="44.10467" lon="4.00694">
        <ele>229.646255</ele>
        <time>2015-01-09T14:54:39Z</time>
      </trkpt>
      <trkpt lat="44.10456" lon="4.00756">
        <ele>228.963943</ele>
        <time>2015-01-09T14:55:11Z</time>
      </trkpt>
      <trkpt lat="44.10451" lon="4.00824">
        <ele>229.105103</ele>
        <time>2015-01-09T14:57:30Z</time>
      </trkpt>
      <trkpt lat="44.10439" lon="4.00888">
        <ele>232.022049</ele>
        <time>2015-01-09T14:58:10Z</time>
      </trkpt>
      <trkpt lat="44.10426" lon="4.00961">
        <ele>232.575851</ele>
        <time>2015-01-09T14:58:43Z</time>
      </trkpt>
      <trkpt lat="44.1042" lon="4.01033">
        <ele>233.467499</ele>
        <time>2015-01-09T14:59:15Z</time>
      </trkpt>
      <trkpt lat="44.10394" lon="4.0107">
        <ele>233.927139</ele>
        <time>2015-01-09T15:05:51Z</time>
      </trkpt>
      <trkpt lat="44.10357" lon="4.01098">
        <ele>237.957031</ele>
        <time>2015-01-09T15:06:20Z</time>
      </trkpt>
      <trkpt lat="44.10313" lon="4.01078">
        <ele>240.339447</ele>
        <time>2015-01-09T15:06:46Z</time>
      </trkpt>
      <trkpt lat="44.1027" lon="4.01059">
        <ele>242.625565</ele>
        <time>2015-01-09T15:07:11Z</time>
      </trkpt>
      <trkpt lat="44.10263" lon="4.0109">
        <ele>252.849442</ele>
        <time>2015-01-09T15:07:47Z</time>
      </trkpt>
      <trkpt lat="44.1022" lon="4.01076">
        <ele>257.926239</ele>
        <time>2015-01-09T15:08:23Z</time>
      </trkpt>
      <trkpt lat="44.10251" lon="4.01122">
        <ele>265.206909</ele>
        <time>2015-01-09T15:09:02Z</time>
      </trkpt>
      <trkpt lat="44.10283" lon="4.01176">
        <ele>275.16275</ele>
        <time>2015-01-09T15:09:45Z</time>
      </trkpt>
      <trkpt lat="44.1029" lon="4.01241">
        <ele>284.724457</ele>
        <time>2015-01-09T15:10:24Z</time>
      </trkpt>
      <trkpt lat="44.10288" lon="4.01311">
        <ele>282.236298</ele>
        <time>2015-01-09T15:10:43Z</time>
      </trkpt>
      <trkpt lat="44.10259" lon="4.01342">
        <ele>277.081512</ele>
        <time>2015-01-09T15:10:58Z</time>
      </trkpt>
      <trkpt lat="44.10285" lon="4.01397">
        <ele>275.119232</ele>
        <time>2015-01-09T15:11:11Z</time>
      </trkpt>
      <trkpt lat="44.10305" lon="4.01456">
        <ele>274.640808</ele>
        <time>2015-01-09T15:11:24Z</time>
      </trkpt>
      <trkpt lat="44.10331" lon="4.01509">
        <ele>274.894958</ele>
        <time>2015-01-09T15:11:33Z</time>
      </trkpt>
      <trkpt lat="44.10351" lon="4.01567">
        <ele>275.170502</ele>
        <time>2015-01-09T15:11:39Z</time>
      </trkpt>
      <trkpt lat="44.10343" lon="4.01632">
        <ele>274.553955</ele>
        <time>2015-01-09T15:11:53Z</time>
      </trkpt>
      <trkpt lat="44.10372" lon="4.01685">
        <ele>276.538635</ele>
        <time>2015-01-09T15:12:07Z</time>
      </trkpt>
      <trkpt lat="44.10347" lon="4.01728">
        <ele>276.683746</ele>
        <time>2015-01-09T15:12:25Z</time>
      </trkpt>
      <trkpt lat="44.10325" lon="4.01769">
        <ele>278.71991</ele>
        <time>2015-01-09T15:12:46Z</time>
      </trkpt>
      <trkpt lat="44.10351" lon="4.01825">
        <ele>280.170624</ele>
        <time>2015-01-09T15:13:04Z</time>
      </trkpt>
      <trkpt lat="44.10402" lon="4.0193">
        <ele>279.179199</ele>
        <time>2015-01-09T15:13:29Z</time>
      </trkpt>
      <trkpt lat="44.10426" lon="4.01985">
        <ele>276.564667</ele>
        <time>2015-01-09T15:13:38Z</time>
      </trkpt>
      <trkpt lat="44.10435" lon="4.02046">
        <ele>275.649994</ele>
        <time>2015-01-09T15:13:46Z</time>
      </trkpt>
      <trkpt lat="44.10409" lon="4.02101">
        <ele>277.122406</ele>
        <time>2015-01-09T15:13:56Z</time>
      </trkpt>
      <trkpt lat="44.10379" lon="4.02151">
        <ele>277.351135</ele>
        <time>2015-01-09T15:14:07Z</time>
      </trkpt>
      <trkpt lat="44.10353" lon="4.02206">
        <ele>274.83374</ele>
        <time>2015-01-09T15:14:18Z</time>
      </trkpt>
      <trkpt lat="44.10318" lon="4.0225">
        <ele>273.622314</ele>
        <time>2015-01-09T15:14:28Z</time>
      </trkpt>
      <trkpt lat="44.10275" lon="4.02263">
        <ele>272.317505</ele>
        <time>2015-01-09T15:14:36Z</time>
      </trkpt>
      <trkpt lat="44.10178" lon="4.02242">
        <ele>268.730621</ele>
        <time>2015-01-09T15:14:51Z</time>
      </trkpt>
      <trkpt lat="44.10133" lon="4.02244">
        <ele>267.829987</ele>
        <time>2015-01-09T15:14:57Z</time>
      </trkpt>
      <trkpt lat="44.10087" lon="4.02253">
        <ele>267.649872</ele>
        <time>2015-01-09T15:15:03Z</time>
      </trkpt>
      <trkpt lat="44.10037" lon="4.02271">
        <ele>266.665649</ele>
        <time>2015-01-09T15:15:10Z</time>
      </trkpt>
      <trkpt lat="44.0999" lon="4.02291">
        <ele>266.224335</ele>
        <time>2015-01-09T15:15:17Z</time>
      </trkpt>
      <trkpt lat="44.09948" lon="4.02321">
        <ele>266.853302</ele>
        <time>2015-01-09T15:15:24Z</time>
      </trkpt>
      <trkpt lat="44.0991" lon="4.02283">
        <ele>267.906982</ele>
        <time>2015-01-09T15:15:33Z</time>
      </trkpt>
      <trkpt lat="44.09872" lon="4.02249">
        <ele>268.526337</ele>
        <time>2015-01-09T15:15:40Z</time>
      </trkpt>
      <trkpt lat="44.09829" lon="4.02222">
        <ele>267.906342</ele>
        <time>2015-01-09T15:15:47Z</time>
      </trkpt>
      <trkpt lat="44.09787" lon="4.02187">
        <ele>266.074982</ele>
        <time>2015-01-09T15:15:54Z</time>
      </trkpt>
      <trkpt lat="44.0974" lon="4.02165">
        <ele>264.276855</ele>
        <time>2015-01-09T15:16:01Z</time>
      </trkpt>
      <trkpt lat="44.09705" lon="4.02123">
        <ele>263.736816</ele>
        <time>2015-01-09T15:16:09Z</time>
      </trkpt>
      <trkpt lat="44.09676" lon="4.02082">
        <ele>264.213745</ele>
        <time>2015-01-09T15:16:20Z</time>
      </trkpt>
      <trkpt lat="44.09635" lon="4.02118">
        <ele>263.132935</ele>
        <time>2015-01-09T15:16:33Z</time>
      </trkpt>
      <trkpt lat="44.09593" lon="4.02151">
        <ele>261.988068</ele>
        <time>2015-01-09T15:16:42Z</time>
      </trkpt>
      <trkpt lat="44.09552" lon="4.02186">
        <ele>260.497498</ele>
        <time>2015-01-09T15:16:51Z</time>
      </trkpt>
      <trkpt lat="44.09512" lon="4.02217">
        <ele>260</ele>
        <time>2015-01-09T15:17:01Z</time>
      </trkpt>
      <trkpt lat="44.09477" lon="4.0231">
        <ele>261.755005</ele>
        <time>2015-01-09T15:17:31Z</time>
      </trkpt>
      <trkpt lat="44.09436" lon="4.02339">
        <ele>264.587494</ele>
        <time>2015-01-09T15:17:49Z</time>
      </trkpt>
      <trkpt lat="44.09391" lon="4.02342">
        <ele>267.645081</ele>
        <time>2015-01-09T15:18:09Z</time>
      </trkpt>
      <trkpt lat="44.09349" lon="4.02367">
        <ele>269.65625</ele>
        <time>2015-01-09T15:18:30Z</time>
      </trkpt>
      <trkpt lat="44.09309" lon="4.02397">
        <ele>271.348755</ele>
        <time>2015-01-09T15:18:52Z</time>
      </trkpt>
      <trkpt lat="44.09268" lon="4.02426">
        <ele>272.948761</ele>
        <time>2015-01-09T15:19:12Z</time>
      </trkpt>
      <trkpt lat="44.09305" lon="4.02466">
        <ele>272.376862</ele>
        <time>2015-01-09T15:19:26Z</time>
      </trkpt>
      <trkpt lat="44.09323" lon="4.02521">
        <ele>269.947815</ele>
        <time>2015-01-09T15:19:39Z</time>
      </trkpt>
      <trkpt lat="44.09356" lon="4.02571">
        <ele>269.536407</ele>
        <time>2015-01-09T15:19:50Z</time>
      </trkpt>
      <trkpt lat="44.09398" lon="4.02609">
        <ele>264.012238</ele>
        <time>2015-01-09T15:19:57Z</time>
      </trkpt>
      <trkpt lat="44.0944" lon="4.02653">
        <ele>259.819366</ele>
        <time>2015-01-09T15:20:04Z</time>
      </trkpt>
      <trkpt lat="44.09521" lon="4.02733">
        <ele>256.922485</ele>
        <time>2015-01-09T15:20:18Z</time>
      </trkpt>
      <trkpt lat="44.09549" lon="4.02783">
        <ele>253.461075</ele>
        <time>2015-01-09T15:20:25Z</time>
      </trkpt>
      <trkpt lat="44.0958" lon="4.02835">
        <ele>248.249649</ele>
        <time>2015-01-09T15:20:34Z</time>
      </trkpt>
      <trkpt lat="44.09613" lon="4.02882">
        <ele>245.148544</ele>
        <time>2015-01-09T15:20:44Z</time>
      </trkpt>
      <trkpt lat="44.09643" lon="4.02929">
        <ele>243.086868</ele>
        <time>2015-01-09T15:20:54Z</time>
      </trkpt>
      <trkpt lat="44.09674" lon="4.02978">
        <ele>242.017288</ele>
        <time>2015-01-09T15:21:03Z</time>
      </trkpt>
      <trkpt lat="44.09713" lon="4.03014">
        <ele>241.727264</ele>
        <time>2015-01-09T15:21:13Z</time>
      </trkpt>
      <trkpt lat="44.09754" lon="4.03055">
        <ele>242.035355</ele>
        <time>2015-01-09T15:21:27Z</time>
      </trkpt>
      <trkpt lat="44.09783" lon="4.03104">
        <ele>243.029388</ele>
        <time>2015-01-09T15:21:36Z</time>
      </trkpt>
      <trkpt lat="44.09807" lon="4.03158">
        <ele>245.69339</ele>
        <time>2015-01-09T15:21:46Z</time>
      </trkpt>
      <trkpt lat="44.09838" lon="4.03204">
        <ele>245.594543</ele>
        <time>2015-01-09T15:21:59Z</time>
      </trkpt>
      <trkpt lat="44.09903" lon="4.03295">
        <ele>237.617371</ele>
        <time>2015-01-09T15:22:22Z</time>
      </trkpt>
      <trkpt lat="44.09935" lon="4.03345">
        <ele>233.922638</ele>
        <time>2015-01-09T15:22:34Z</time>
      </trkpt>
      <trkpt lat="44.09971" lon="4.03381">
        <ele>231.5448</ele>
        <time>2015-01-09T15:22:41Z</time>
      </trkpt>
      <trkpt lat="44.1001" lon="4.03414">
        <ele>225.807419</ele>
        <time>2015-01-09T15:22:47Z</time>
      </trkpt>
      <trkpt lat="44.1005" lon="4.03444">
        <ele>220.323288</ele>
        <time>2015-01-09T15:22:56Z</time>
      </trkpt>
      <trkpt lat="44.10089" lon="4.0348">
        <ele>212.541946</ele>
        <time>2015-01-09T15:23:09Z</time>
      </trkpt>
      <trkpt lat="44.10119" lon="4.0353">
        <ele>213.782166</ele>
        <time>2015-01-09T15:23:25Z</time>
      </trkpt>
      <trkpt lat="44.10154" lon="4.03577">
        <ele>213.3246</ele>
        <time>2015-01-09T15:23:36Z</time>
      </trkpt>
      <trkpt lat="44.10186" lon="4.03624">
        <ele>210.145493</ele>
        <time>2015-01-09T15:23:47Z</time>
      </trkpt>
      <trkpt lat="44.10218" lon="4.03672">
        <ele>205.170242</ele>
        <time>2015-01-09T15:24:01Z</time>
      </trkpt>
      <trkpt lat="44.10245" lon="4.03725">
        <ele>204.219604</ele>
        <time>2015-01-09T15:24:36Z</time>
      </trkpt>
      <trkpt lat="44.1028" lon="4.03767">
        <ele>203.480118</ele>
        <time>2015-01-09T15:24:47Z</time>
      </trkpt>
      <trkpt lat="44.1031" lon="4.03817">
        <ele>203.464722</ele>
        <time>2015-01-09T15:24:57Z</time>
      </trkpt>
      <trkpt lat="44.10341" lon="4.03863">
        <ele>201.764404</ele>
        <time>2015-01-09T15:25:06Z</time>
      </trkpt>
      <trkpt lat="44.1038" lon="4.03905">
        <ele>201.364044</ele>
        <time>2015-01-09T15:25:13Z</time>
      </trkpt>
      <trkpt lat="44.10414" lon="4.03949">
        <ele>201.344604</ele>
        <time>2015-01-09T15:25:19Z</time>
      </trkpt>
      <trkpt lat="44.10447" lon="4.03994">
        <ele>200.772446</ele>
        <time>2015-01-09T15:25:26Z</time>
      </trkpt>
      <trkpt lat="44.10483" lon="4.04035">
        <ele>200.593643</ele>
        <time>2015-01-09T15:25:33Z</time>
      </trkpt>
      <trkpt lat="44.10526" lon="4.04068">
        <ele>197.792068</ele>
        <time>2015-01-09T15:25:41Z</time>
      </trkpt>
      <trkpt lat="44.10573" lon="4.04089">
        <ele>196.334351</ele>
        <time>2015-01-09T15:25:49Z</time>
      </trkpt>
      <trkpt lat="44.10719" lon="4.04142">
        <ele>198.015778</ele>
        <time>2015-01-09T15:26:13Z</time>
      </trkpt>
      <trkpt lat="44.10799" lon="4.04216">
        <ele>196.684204</ele>
        <time>2015-01-09T15:26:30Z</time>
      </trkpt>
      <trkpt lat="44.10838" lon="4.04254">
        <ele>197.527283</ele>
        <time>2015-01-09T15:26:38Z</time>
      </trkpt>
      <trkpt lat="44.10876" lon="4.04294">
        <ele>195.594055</ele>
        <time>2015-01-09T15:26:46Z</time>
      </trkpt>
      <trkpt lat="44.10917" lon="4.04334">
        <ele>192.350128</ele>
        <time>2015-01-09T15:26:54Z</time>
      </trkpt>
      <trkpt lat="44.10954" lon="4.04376">
        <ele>191.063293</ele>
        <time>2015-01-09T15:27:01Z</time>
      </trkpt>
      <trkpt lat="44.1099" lon="4.04414">
        <ele>191</ele>
        <time>2015-01-09T15:27:08Z</time>
      </trkpt>
      <trkpt lat="44.11024" lon="4.04457">
        <ele>190.477493</ele>
        <time>2015-01-09T15:27:15Z</time>
      </trkpt>
      <trkpt lat="44.11086" lon="4.04558">
        <ele>188.17453</ele>
        <time>2015-01-09T15:27:29Z</time>
      </trkpt>
      <trkpt lat="44.11127" lon="4.04599">
        <ele>186.734604</ele>
        <time>2015-01-09T15:27:37Z</time>
      </trkpt>
      <trkpt lat="44.1117" lon="4.04635">
        <ele>185.329346</ele>
        <time>2015-01-09T15:27:45Z</time>
      </trkpt>
      <trkpt lat="44.11219" lon="4.04653">
        <ele>185.082687</ele>
        <time>2015-01-09T15:27:53Z</time>
      </trkpt>
      <trkpt lat="44.11263" lon="4.04663">
        <ele>184.744507</ele>
        <time>2015-01-09T15:28:03Z</time>
      </trkpt>
      <trkpt lat="44.11295" lon="4.04707">
        <ele>182.186279</ele>
        <time>2015-01-09T15:28:14Z</time>
      </trkpt>
      <trkpt lat="44.11323" lon="4.04757">
        <ele>181.659714</ele>
        <time>2015-01-09T15:28:22Z</time>
      </trkpt>
      <trkpt lat="44.11361" lon="4.04801">
        <ele>182.707764</ele>
        <time>2015-01-09T15:28:30Z</time>
      </trkpt>
      <trkpt lat="44.11397" lon="4.04841">
        <ele>182.895004</ele>
        <time>2015-01-09T15:28:39Z</time>
      </trkpt>
      <trkpt lat="44.11475" lon="4.04923">
        <ele>188.982162</ele>
        <time>2015-01-09T15:29:01Z</time>
      </trkpt>
      <trkpt lat="44.11511" lon="4.0496">
        <ele>192.647171</ele>
        <time>2015-01-09T15:29:12Z</time>
      </trkpt>
      <trkpt lat="44.11544" lon="4.05008">
        <ele>194.191101</ele>
        <time>2015-01-09T15:29:22Z</time>
      </trkpt>
      <trkpt lat="44.11585" lon="4.05035">
        <ele>193.257507</ele>
        <time>2015-01-09T15:29:33Z</time>
      </trkpt>
      <trkpt lat="44.11677" lon="4.0507">
        <ele>195.362503</ele>
        <time>2015-01-09T15:29:54Z</time>
      </trkpt>
      <trkpt lat="44.11699" lon="4.05117">
        <ele>195.797562</ele>
        <time>2015-01-09T15:30:07Z</time>
      </trkpt>
      <trkpt lat="44.11679" lon="4.05175">
        <ele>196.572021</ele>
        <time>2015-01-09T15:30:23Z</time>
      </trkpt>
      <trkpt lat="44.11658" lon="4.05233">
        <ele>197.778702</ele>
        <time>2015-01-09T15:30:39Z</time>
      </trkpt>
      <trkpt lat="44.1165" lon="4.05296">
        <ele>200.388062</ele>
        <time>2015-01-09T15:30:54Z</time>
      </trkpt>
      <trkpt lat="44.11666" lon="4.05359">
        <ele>202.590256</ele>
        <time>2015-01-09T15:31:06Z</time>
      </trkpt>
      <trkpt lat="44.11682" lon="4.0542">
        <ele>199.61969</ele>
        <time>2015-01-09T15:31:14Z</time>
      </trkpt>
      <trkpt lat="44.11703" lon="4.05477">
        <ele>197.523254</ele>
        <time>2015-01-09T15:31:21Z</time>
      </trkpt>
      <trkpt lat="44.11751" lon="4.05489">
        <ele>194.524445</ele>
        <time>2015-01-09T15:31:28Z</time>
      </trkpt>
      <trkpt lat="44.118" lon="4.05468">
        <ele>184.378983</ele>
        <time>2015-01-09T15:31:34Z</time>
      </trkpt>
      <trkpt lat="44.11832" lon="4.05513">
        <ele>184.876511</ele>
        <time>2015-01-09T15:31:39Z</time>
      </trkpt>
      <trkpt lat="44.11896" lon="4.05616">
        <ele>182.243103</ele>
        <time>2015-01-09T15:31:49Z</time>
      </trkpt>
      <trkpt lat="44.11946" lon="4.05728">
        <ele>182.712997</ele>
        <time>2015-01-09T15:31:59Z</time>
      </trkpt>
      <trkpt lat="44.11982" lon="4.05784">
        <ele>177.303772</ele>
        <time>2015-01-09T15:32:05Z</time>
      </trkpt>
      <trkpt lat="44.12021" lon="4.05814">
        <ele>168.594604</ele>
        <time>2015-01-09T15:32:10Z</time>
      </trkpt>
      <trkpt lat="44.12067" lon="4.05827">
        <ele>165.477493</ele>
        <time>2015-01-09T15:32:15Z</time>
      </trkpt>
      <trkpt lat="44.12112" lon="4.0587">
        <ele>162.781006</ele>
        <time>2015-01-09T15:32:21Z</time>
      </trkpt>
      <trkpt lat="44.12145" lon="4.05915">
        <ele>157.963348</ele>
        <time>2015-01-09T15:32:26Z</time>
      </trkpt>
      <trkpt lat="44.12168" lon="4.05978">
        <ele>157.55423</ele>
        <time>2015-01-09T15:32:31Z</time>
      </trkpt>
      <trkpt lat="44.12154" lon="4.06052">
        <ele>156.414444</ele>
        <time>2015-01-09T15:32:36Z</time>
      </trkpt>
      <trkpt lat="44.12125" lon="4.06113">
        <ele>153.861649</ele>
        <time>2015-01-09T15:32:41Z</time>
      </trkpt>
      <trkpt lat="44.12109" lon="4.06178">
        <ele>152.8022</ele>
        <time>2015-01-09T15:32:46Z</time>
      </trkpt>
      <trkpt lat="44.121" lon="4.06248">
        <ele>149.933792</ele>
        <time>2015-01-09T15:32:52Z</time>
      </trkpt>
      <trkpt lat="44.12097" lon="4.06314">
        <ele>147.287369</ele>
        <time>2015-01-09T15:32:58Z</time>
      </trkpt>
      <trkpt lat="44.12094" lon="4.06379">
        <ele>146.46048</ele>
        <time>2015-01-09T15:33:04Z</time>
      </trkpt>
      <trkpt lat="44.12084" lon="4.06441">
        <ele>148.584</ele>
        <time>2015-01-09T15:33:10Z</time>
      </trkpt>
      <trkpt lat="44.12071" lon="4.06502">
        <ele>147.615005</ele>
        <time>2015-01-09T15:33:16Z</time>
      </trkpt>
      <trkpt lat="44.12061" lon="4.06566">
        <ele>145.92363</ele>
        <time>2015-01-09T15:33:22Z</time>
      </trkpt>
      <trkpt lat="44.12064" lon="4.06635">
        <ele>143.825745</ele>
        <time>2015-01-09T15:33:28Z</time>
      </trkpt>
      <trkpt lat="44.12071" lon="4.06697">
        <ele>142.571045</ele>
        <time>2015-01-09T15:33:33Z</time>
      </trkpt>
      <trkpt lat="44.12082" lon="4.0677">
        <ele>137.24971</ele>
        <time>2015-01-09T15:33:39Z</time>
      </trkpt>
      <trkpt lat="44.12122" lon="4.06897">
        <ele>138.39978</ele>
        <time>2015-01-09T15:33:52Z</time>
      </trkpt>
      <trkpt lat="44.12123" lon="4.06964">
        <ele>136.260437</ele>
        <time>2015-01-09T15:33:59Z</time>
      </trkpt>
      <trkpt lat="44.12117" lon="4.07032">
        <ele>134.007309</ele>
        <time>2015-01-09T15:34:06Z</time>
      </trkpt>
      <trkpt lat="44.12118" lon="4.07098">
        <ele>133.307495</ele>
        <time>2015-01-09T15:34:13Z</time>
      </trkpt>
      <trkpt lat="44.12101" lon="4.07142">
        <ele>129.203339</ele>
        <time>2015-01-09T15:34:22Z</time>
      </trkpt>
      <trkpt lat="44.12059" lon="4.07177">
        <ele>128.97731</ele>
        <time>2015-01-09T15:34:30Z</time>
      </trkpt>
      <trkpt lat="44.12039" lon="4.07215">
        <ele>131.543198</ele>
        <time>2015-01-09T15:34:43Z</time>
      </trkpt>
      <trkpt lat="44.12036" lon="4.07275">
        <ele>130.153976</ele>
        <time>2015-01-09T15:34:54Z</time>
      </trkpt>
      <trkpt lat="44.11999" lon="4.07313">
        <ele>136.376801</ele>
        <time>2015-01-09T15:35:07Z</time>
      </trkpt>
      <trkpt lat="44.11994" lon="4.07375">
        <ele>131.238373</ele>
        <time>2015-01-09T15:35:17Z</time>
      </trkpt>
      <trkpt lat="44.11979" lon="4.07435">
        <ele>130.174057</ele>
        <time>2015-01-09T15:35:27Z</time>
      </trkpt>
      <trkpt lat="44.11949" lon="4.07484">
        <ele>132.517502</ele>
        <time>2015-01-09T15:35:40Z</time>
      </trkpt>
      <trkpt lat="44.11949" lon="4.07549">
        <ele>132.097137</ele>
        <time>2015-01-09T15:35:57Z</time>
      </trkpt>
      <trkpt lat="44.12006" lon="4.07728">
        <ele>125.212791</ele>
        <time>2015-01-09T15:36:24Z</time>
      </trkpt>
      <trkpt lat="44.1201" lon="4.07794">
        <ele>123.098061</ele>
        <time>2015-01-09T15:36:33Z</time>
      </trkpt>
      <trkpt lat="44.12004" lon="4.07852">
        <ele>122.609901</ele>
        <time>2015-01-09T15:36:48Z</time>
      </trkpt>
      <trkpt lat="44.11984" lon="4.07899">
        <ele>123.908318</ele>
        <time>2015-01-09T15:37:32Z</time>
      </trkpt>
      <trkpt lat="44.11996" lon="4.07956">
        <ele>120.637917</ele>
        <time>2015-01-09T15:37:57Z</time>
      </trkpt>
      <trkpt lat="44.11997" lon="4.08023">
        <ele>119.653343</ele>
        <time>2015-01-09T15:38:05Z</time>
      </trkpt>
      <trkpt lat="44.11981" lon="4.0842">
        <ele>120.792503</ele>
        <time>2015-01-09T15:38:51Z</time>
      </trkpt>
      <trkpt lat="44.11985" lon="4.08482">
        <ele>120.690002</ele>
        <time>2015-01-09T15:39:00Z</time>
      </trkpt>
      <trkpt lat="44.1207" lon="4.08483">
        <ele>119.212502</ele>
        <time>2015-01-09T15:39:20Z</time>
      </trkpt>
      <trkpt lat="44.12116" lon="4.08486">
        <ele>120.237503</ele>
        <time>2015-01-09T15:39:30Z</time>
      </trkpt>
      <trkpt lat="44.12131" lon="4.08546">
        <ele>120.582497</ele>
        <time>2015-01-09T15:39:38Z</time>
      </trkpt>
      <trkpt lat="44.12131" lon="4.08613">
        <ele>120.605003</ele>
        <time>2015-01-09T15:39:46Z</time>
      </trkpt>
      <trkpt lat="44.12135" lon="4.08684">
        <ele>120.732498</ele>
        <time>2015-01-09T15:39:54Z</time>
      </trkpt>
      <trkpt lat="44.12134" lon="4.08754">
        <ele>120.717499</ele>
        <time>2015-01-09T15:40:02Z</time>
      </trkpt>
      <trkpt lat="44.12137" lon="4.08822">
        <ele>120.82</ele>
        <time>2015-01-09T15:40:10Z</time>
      </trkpt>
      <trkpt lat="44.12136" lon="4.08889">
        <ele>120.824997</ele>
        <time>2015-01-09T15:40:18Z</time>
      </trkpt>
      <trkpt lat="44.1214" lon="4.08954">
        <ele>120.932503</ele>
        <time>2015-01-09T15:40:26Z</time>
      </trkpt>
      <trkpt lat="44.1214" lon="4.09022">
        <ele>120.910378</ele>
        <time>2015-01-09T15:40:34Z</time>
      </trkpt>
      <trkpt lat="44.12141" lon="4.09093">
        <ele>121.010002</ele>
        <time>2015-01-09T15:40:42Z</time>
      </trkpt>
      <trkpt lat="44.12138" lon="4.09163">
        <ele>122.020882</ele>
        <time>2015-01-09T15:40:50Z</time>
      </trkpt>
      <trkpt lat="44.1212" lon="4.0922">
        <ele>122.68956</ele>
        <time>2015-01-09T15:40:57Z</time>
      </trkpt>
      <trkpt lat="44.12093" lon="4.09279">
        <ele>122.847679</ele>
        <time>2015-01-09T15:41:05Z</time>
      </trkpt>
      <trkpt lat="44.12055" lon="4.09318">
        <ele>123.594566</ele>
        <time>2015-01-09T15:41:13Z</time>
      </trkpt>
      <trkpt lat="44.12016" lon="4.09361">
        <ele>124.685921</ele>
        <time>2015-01-09T15:41:22Z</time>
      </trkpt>
      <trkpt lat="44.11974" lon="4.09392">
        <ele>124.886948</ele>
        <time>2015-01-09T15:41:31Z</time>
      </trkpt>
      <trkpt lat="44.11929" lon="4.09419">
        <ele>124.104164</ele>
        <time>2015-01-09T15:41:41Z</time>
      </trkpt>
      <trkpt lat="44.11899" lon="4.09465">
        <ele>127.558128</ele>
        <time>2015-01-09T15:41:52Z</time>
      </trkpt>
      <trkpt lat="44.11868" lon="4.09516">
        <ele>129.40184</ele>
        <time>2015-01-09T15:42:06Z</time>
      </trkpt>
      <trkpt lat="44.11825" lon="4.09547">
        <ele>127.807823</ele>
        <time>2015-01-09T15:42:14Z</time>
      </trkpt>
      <trkpt lat="44.11777" lon="4.0956">
        <ele>126.264053</ele>
        <time>2015-01-09T15:42:21Z</time>
      </trkpt>
      <trkpt lat="44.11728" lon="4.09576">
        <ele>125.952576</ele>
        <time>2015-01-09T15:42:28Z</time>
      </trkpt>
      <trkpt lat="44.11685" lon="4.096">
        <ele>125.047897</ele>
        <time>2015-01-09T15:42:35Z</time>
      </trkpt>
      <trkpt lat="44.11639" lon="4.09628">
        <ele>125.812149</ele>
        <time>2015-01-09T15:42:43Z</time>
      </trkpt>
      <trkpt lat="44.11611" lon="4.09677">
        <ele>126.879997</ele>
        <time>2015-01-09T15:42:50Z</time>
      </trkpt>
    </trkseg>
  </trk>
</gpx>